Observation data for Romero 11SSW on 10/18/2019      Previous  Date       Current Mesonet Observations  Soil Data  Daily Summary Page  Observations in Plain Language
KBR1 180500Z 20015KT 16/02 A2979 RMK A01 T01560022  RH  040%=      5-min Rain = 0
KBR1 180501Z 20016KT 16/02 A2979 RMK A01 T01580022  RH  040%=      5-min Rain = 0
KBR1 180502Z 20016KT 16/02 A2979 RMK A01 T01610022  RH  039%=      5-min Rain = 0
KBR1 180503Z 20017KT 16/02 A2979 RMK A01 T01630022  RH  039%=      5-min Rain = 0
KBR1 180504Z 20016KT 16/02 A2979 RMK A01 T01640022  RH  039%=      5-min Rain = 0
KBR1 180505Z 20015KT 16/02 A2979 RMK A01 T01630022  RH  039%=      5-min Rain = 0
KBR1 180506Z 20014KT 16/02 A2979 RMK A01 T01630022  RH  039%=      5-min Rain = 0
KBR1 180507Z 20015KT 16/02 A2979 RMK A01 T01630022  RH  039%=      5-min Rain = 0
KBR1 180508Z 20014KT 16/02 A2979 RMK A01 T01620021  RH  039%=      5-min Rain = 0
KBR1 180509Z 19015KT 16/02 A2979 RMK A01 T01610021  RH  039%=      5-min Rain = 0
KBR1 180510Z 20013KT 16/02 A2979 RMK A01 T01610021  RH  039%=      5-min Rain = 0
KBR1 180511Z 19013KT 16/02 A2979 RMK A01 T01590021  RH  039%=      5-min Rain = 0
KBR1 180512Z 19013KT 16/02 A2979 RMK A01 T01590021  RH  039%=      5-min Rain = 0
KBR1 180513Z 19013KT 16/02 A2979 RMK A01 T01580021  RH  039%=      5-min Rain = 0
KBR1 180514Z 19013KT 16/02 A2979 RMK A01 T01580021  RH  040%=      5-min Rain = 0
KBR1 180515Z 19012KT 16/02 A2979 RMK A01 T01580021  RH  040%=      5-min Rain = 0
KBR1 180516Z 20012KT 16/02 A2979 RMK A01 T01570021  RH  040%=      5-min Rain = 0
KBR1 180517Z 19013KT 16/02 A2979 RMK A01 T01570021  RH  040%=      5-min Rain = 0
KBR1 180518Z 19012KT 16/02 A2979 RMK A01 T01570021  RH  040%=      5-min Rain = 0
KBR1 180519Z 19013KT 16/02 A2979 RMK A01 T01560021  RH  040%=      5-min Rain = 0
KBR1 180520Z 19014KT 16/02 A2979 RMK A01 T01570021  RH  040%=      5-min Rain = 0
KBR1 180521Z 19015KT 16/02 A2978 RMK A01 T01570021  RH  040%=      5-min Rain = 0
KBR1 180522Z 20014KT 16/02 A2978 RMK A01 T01590021  RH  039%=      5-min Rain = 0
KBR1 180523Z 19014KT 16/02 A2978 RMK A01 T01590021  RH  039%=      5-min Rain = 0
KBR1 180524Z 20013KT 16/02 A2978 RMK A01 T01590021  RH  039%=      5-min Rain = 0
KBR1 180525Z 19015KT 16/02 A2978 RMK A01 T01590021  RH  039%=      5-min Rain = 0
KBR1 180526Z 20014KT 16/02 A2978 RMK A01 T01600021  RH  039%=      5-min Rain = 0
KBR1 180527Z 20014KT 16/02 A2978 RMK A01 T01600021  RH  039%=      5-min Rain = 0
KBR1 180528Z 19013KT 16/02 A2978 RMK A01 T01600021  RH  039%=      5-min Rain = 0
KBR1 180529Z 19014KT 16/02 A2978 RMK A01 T01600021  RH  039%=      5-min Rain = 0
KBR1 180530Z 20013KT 16/02 A2978 RMK A01 T01610022  RH  039%=      5-min Rain = 0
KBR1 180531Z 19014KT 16/02 A2978 RMK A01 T01610022  RH  039%=      5-min Rain = 0
KBR1 180532Z 19014KT 16/02 A2978 RMK A01 T01610022  RH  039%=      5-min Rain = 0
KBR1 180533Z 20013KT 16/02 A2978 RMK A01 T01620023  RH  039%=      5-min Rain = 0
KBR1 180534Z 19012KT 16/02 A2978 RMK A01 T01610023  RH  039%=      5-min Rain = 0
KBR1 180535Z 20012KT 16/02 A2979 RMK A01 T01600023  RH  040%=      5-min Rain = 0
KBR1 180536Z 20012KT 16/02 A2979 RMK A01 T01590023  RH  040%=      5-min Rain = 0
KBR1 180537Z 20013KT 16/02 A2979 RMK A01 T01590023  RH  040%=      5-min Rain = 0
KBR1 180538Z 20013KT 16/02 A2979 RMK A01 T01590023  RH  040%=      5-min Rain = 0
KBR1 180539Z 19013KT 16/02 A2979 RMK A01 T01600024  RH  040%=      5-min Rain = 0
KBR1 180540Z 20013KT 16/02 A2979 RMK A01 T01590024  RH  040%=      5-min Rain = 0
KBR1 180541Z 20013KT 16/02 A2979 RMK A01 T01600024  RH  040%=      5-min Rain = 0
KBR1 180542Z 20011KT 16/03 A2979 RMK A01 T01600025  RH  040%=      5-min Rain = 0
KBR1 180543Z 20012KT 16/02 A2978 RMK A01 T01580024  RH  041%=      5-min Rain = 0
KBR1 180544Z 20011KT 16/03 A2978 RMK A01 T01570025  RH  041%=      5-min Rain = 0
KBR1 180545Z 20012KT 16/03 A2978 RMK A01 T01570026  RH  041%=      5-min Rain = 0
KBR1 180546Z 20010KT 16/03 A2978 RMK A01 T01570025  RH  041%=      5-min Rain = 0
KBR1 180547Z 20012KT 16/03 A2978 RMK A01 T01560025  RH  041%=      5-min Rain = 0
KBR1 180548Z 20012KT 16/03 A2978 RMK A01 T01560026  RH  041%=      5-min Rain = 0
KBR1 180549Z 20010KT 16/03 A2978 RMK A01 T01560026  RH  042%=      5-min Rain = 0
KBR1 180550Z 20010KT 15/03 A2978 RMK A01 T01540026  RH  042%=      5-min Rain = 0
KBR1 180551Z 20010KT 15/03 A2978 RMK A01 T01520026  RH  042%=      5-min Rain = 0
KBR1 180552Z 21009KT 15/03 A2978 RMK A01 T01520026  RH  043%=      5-min Rain = 0
KBR1 180553Z 21008KT 15/03 A2978 RMK A01 T01510026  RH  043%=      5-min Rain = 0
KBR1 180554Z 21008KT 15/03 A2978 RMK A01 T01500025  RH  043%=      5-min Rain = 0
KBR1 180555Z 21009KT 15/03 A2978 RMK A01 T01480025  RH  043%=      5-min Rain = 0
KBR1 180556Z 21009KT 15/03 A2978 RMK A01 T01470025  RH  044%=      5-min Rain = 0
KBR1 180557Z 21008KT 15/03 A2978 RMK A01 T01460025  RH  044%=      5-min Rain = 0
KBR1 180558Z 21008KT 15/03 A2978 RMK A01 T01460026  RH  044%=      5-min Rain = 0
KBR1 180559Z 21008KT 15/03 A2978 RMK A01 T01460026  RH  044%=      5-min Rain = 0
KBR1 180600Z 21008KT 15/03 A2978 RMK A01 T01450026  RH  045%=      5-min Rain = 0
KBR1 180601Z 21008KT 15/03 A2978 RMK A01 T01450026  RH  045%=      5-min Rain = 0
KBR1 180602Z 21009KT 15/03 A2978 RMK A01 T01450026  RH  045%=      5-min Rain = 0
KBR1 180603Z 21008KT 14/03 A2978 RMK A01 T01440026  RH  045%=      5-min Rain = 0
KBR1 180604Z 21008KT 14/03 A2978 RMK A01 T01440027  RH  045%=      5-min Rain = 0
KBR1 180605Z 21008KT 14/03 A2978 RMK A01 T01430027  RH  045%=      5-min Rain = 0
KBR1 180606Z 21008KT 14/03 A2978 RMK A01 T01420027  RH  046%=      5-min Rain = 0
KBR1 180607Z 21007KT 14/03 A2978 RMK A01 T01410027  RH  046%=      5-min Rain = 0
KBR1 180608Z 21008KT 14/03 A2978 RMK A01 T01410027  RH  046%=      5-min Rain = 0
KBR1 180609Z 21008KT 14/03 A2978 RMK A01 T01400027  RH  047%=      5-min Rain = 0
KBR1 180610Z 21007KT 14/03 A2978 RMK A01 T01390028  RH  047%=      5-min Rain = 0
KBR1 180611Z 21007KT 14/03 A2978 RMK A01 T01390028  RH  047%=      5-min Rain = 0
KBR1 180612Z 20008KT 14/03 A2978 RMK A01 T01390029  RH  047%=      5-min Rain = 0
KBR1 180613Z 21008KT 14/03 A2978 RMK A01 T01400030  RH  047%=      5-min Rain = 0
KBR1 180614Z 21007KT 14/03 A2978 RMK A01 T01410030  RH  047%=      5-min Rain = 0
KBR1 180615Z 22007KT 14/03 A2978 RMK A01 T01400029  RH  047%=      5-min Rain = 0
KBR1 180616Z 22007KT 14/03 A2978 RMK A01 T01380029  RH  047%=      5-min Rain = 0
KBR1 180617Z 23007KT 14/03 A2978 RMK A01 T01370028  RH  048%=      5-min Rain = 0
KBR1 180618Z 22007KT 14/03 A2978 RMK A01 T01350028  RH  048%=      5-min Rain = 0
KBR1 180619Z 22006KT 14/03 A2978 RMK A01 T01350029  RH  049%=      5-min Rain = 0
KBR1 180620Z 22006KT 14/03 A2978 RMK A01 T01350029  RH  049%=      5-min Rain = 0
KBR1 180621Z 23006KT 14/03 A2978 RMK A01 T01350029  RH  049%=      5-min Rain = 0
KBR1 180622Z 22006KT 13/03 A2978 RMK A01 T01340029  RH  049%=      5-min Rain = 0
KBR1 180623Z 23006KT 13/03 A2978 RMK A01 T01340029  RH  049%=      5-min Rain = 0
KBR1 180624Z 23006KT 13/03 A2978 RMK A01 T01330029  RH  049%=      5-min Rain = 0
KBR1 180625Z 23006KT 13/03 A2978 RMK A01 T01330029  RH  049%=      5-min Rain = 0
KBR1 180626Z 23006KT 13/03 A2978 RMK A01 T01330029  RH  049%=      5-min Rain = 0
KBR1 180627Z 23006KT 13/03 A2978 RMK A01 T01340030  RH  049%=      5-min Rain = 0
KBR1 180628Z 23007KT 13/03 A2978 RMK A01 T01340030  RH  049%=      5-min Rain = 0
KBR1 180629Z 22007KT 13/03 A2978 RMK A01 T01340030  RH  049%=      5-min Rain = 0
KBR1 180630Z 23006KT 14/03 A2978 RMK A01 T01350030  RH  049%=      5-min Rain = 0
KBR1 180631Z 23007KT 14/03 A2978 RMK A01 T01350031  RH  049%=      5-min Rain = 0
KBR1 180632Z 23007KT 14/03 A2979 RMK A01 T01360031  RH  049%=      5-min Rain = 0
KBR1 180633Z 23007KT 14/03 A2979 RMK A01 T01360032  RH  049%=      5-min Rain = 0
KBR1 180634Z 23007KT 14/03 A2979 RMK A01 T01350032  RH  049%=      5-min Rain = 0
KBR1 180635Z 23007KT 14/03 A2979 RMK A01 T01350031  RH  050%=      5-min Rain = 0
KBR1 180636Z 22007KT 14/03 A2979 RMK A01 T01350032  RH  050%=      5-min Rain = 0
KBR1 180637Z 22007KT 14/03 A2979 RMK A01 T01350033  RH  050%=      5-min Rain = 0
KBR1 180638Z 23007KT 14/03 A2979 RMK A01 T01350033  RH  050%=      5-min Rain = 0
KBR1 180639Z 23007KT 14/03 A2979 RMK A01 T01360033  RH  050%=      5-min Rain = 0
KBR1 180640Z 23006KT 14/03 A2979 RMK A01 T01350032  RH  050%=      5-min Rain = 0
KBR1 180641Z 23006KT 13/03 A2979 RMK A01 T01340032  RH  050%=      5-min Rain = 0
KBR1 180642Z 23006KT 13/03 A2979 RMK A01 T01330032  RH  050%=      5-min Rain = 0
KBR1 180643Z 23006KT 13/03 A2979 RMK A01 T01330032  RH  051%=      5-min Rain = 0
KBR1 180644Z 24005KT 13/03 A2979 RMK A01 T01320033  RH  051%=      5-min Rain = 0
KBR1 180645Z 24006KT 13/03 A2979 RMK A01 T01320033  RH  051%=      5-min Rain = 0
KBR1 180646Z 23005KT 13/03 A2979 RMK A01 T01320033  RH  051%=      5-min Rain = 0
KBR1 180647Z 23005KT 13/03 A2978 RMK A01 T01320033  RH  051%=      5-min Rain = 0
KBR1 180648Z 23005KT 13/03 A2978 RMK A01 T01310033  RH  051%=      5-min Rain = 0
KBR1 180649Z 23006KT 13/03 A2978 RMK A01 T01310033  RH  051%=      5-min Rain = 0
KBR1 180650Z 23006KT 13/03 A2978 RMK A01 T01310033  RH  051%=      5-min Rain = 0
KBR1 180651Z 23006KT 13/03 A2978 RMK A01 T01310033  RH  051%=      5-min Rain = 0
KBR1 180652Z 23006KT 13/03 A2978 RMK A01 T01320034  RH  051%=      5-min Rain = 0
KBR1 180653Z 23006KT 13/03 A2978 RMK A01 T01320034  RH  051%=      5-min Rain = 0
KBR1 180654Z 23007KT 13/03 A2978 RMK A01 T01320034  RH  051%=      5-min Rain = 0
KBR1 180655Z 23007KT 13/03 A2978 RMK A01 T01330034  RH  051%=      5-min Rain = 0
KBR1 180656Z 22007KT 14/04 A2978 RMK A01 T01350035  RH  051%=      5-min Rain = 0
KBR1 180657Z 22008KT 14/04 A2978 RMK A01 T01350035  RH  051%=      5-min Rain = 0
KBR1 180658Z 22008KT 14/04 A2978 RMK A01 T01360035  RH  050%=      5-min Rain = 0
KBR1 180659Z 22008KT 14/04 A2978 RMK A01 T01380036  RH  050%=      5-min Rain = 0
KBR1 180700Z 22008KT 14/04 A2978 RMK A01 T01380035  RH  050%=      5-min Rain = 0
KBR1 180701Z 22008KT 14/04 A2978 RMK A01 T01370035  RH  050%=      5-min Rain = 0
KBR1 180702Z 22008KT 14/04 A2978 RMK A01 T01370036  RH  051%=      5-min Rain = 0
KBR1 180703Z 22008KT 14/04 A2978 RMK A01 T01360036  RH  051%=      5-min Rain = 0
KBR1 180704Z 22008KT 14/04 A2978 RMK A01 T01360036  RH  051%=      5-min Rain = 0
KBR1 180705Z 22007KT 14/04 A2978 RMK A01 T01350036  RH  051%=      5-min Rain = 0
KBR1 180706Z 22007KT 13/04 A2978 RMK A01 T01340035  RH  051%=      5-min Rain = 0
KBR1 180707Z 22007KT 13/04 A2978 RMK A01 T01340036  RH  051%=      5-min Rain = 0
KBR1 180708Z 22007KT 13/04 A2978 RMK A01 T01340035  RH  051%=      5-min Rain = 0
KBR1 180709Z 22007KT 13/04 A2978 RMK A01 T01330035  RH  051%=      5-min Rain = 0
KBR1 180710Z 22007KT 13/04 A2978 RMK A01 T01320035  RH  052%=      5-min Rain = 0
KBR1 180711Z 22007KT 13/04 A2978 RMK A01 T01320035  RH  052%=      5-min Rain = 0
KBR1 180712Z 21007KT 13/04 A2978 RMK A01 T01310035  RH  052%=      5-min Rain = 0
KBR1 180713Z 21007KT 13/04 A2977 RMK A01 T01310035  RH  052%=      5-min Rain = 0
KBR1 180714Z 21008KT 13/04 A2977 RMK A01 T01300035  RH  052%=      5-min Rain = 0
KBR1 180715Z 20008KT 13/04 A2977 RMK A01 T01300035  RH  053%=      5-min Rain = 0
KBR1 180716Z 20008KT 13/04 A2977 RMK A01 T01310036  RH  052%=      5-min Rain = 0
KBR1 180717Z 20009KT 13/04 A2977 RMK A01 T01330036  RH  052%=      5-min Rain = 0
KBR1 180718Z 20009KT 13/04 A2977 RMK A01 T01340037  RH  052%=      5-min Rain = 0
KBR1 180719Z 20009KT 13/04 A2977 RMK A01 T01340036  RH  051%=      5-min Rain = 0
KBR1 180720Z 20009KT 14/04 A2977 RMK A01 T01350036  RH  051%=      5-min Rain = 0
KBR1 180721Z 20009KT 14/04 A2977 RMK A01 T01350036  RH  051%=      5-min Rain = 0
KBR1 180722Z 20009KT 14/04 A2977 RMK A01 T01350037  RH  051%=      5-min Rain = 0
KBR1 180723Z 20009KT 14/04 A2977 RMK A01 T01350036  RH  051%=      5-min Rain = 0
KBR1 180724Z 20009KT 14/04 A2977 RMK A01 T01350036  RH  051%=      5-min Rain = 0
KBR1 180725Z 20009KT 13/04 A2977 RMK A01 T01340036  RH  052%=      5-min Rain = 0
KBR1 180726Z 20009KT 13/04 A2977 RMK A01 T01340036  RH  052%=      5-min Rain = 0
KBR1 180727Z 20009KT 13/04 A2977 RMK A01 T01340037  RH  052%=      5-min Rain = 0
KBR1 180728Z 20008KT 13/04 A2977 RMK A01 T01340037  RH  052%=      5-min Rain = 0
KBR1 180729Z 20009KT 14/04 A2977 RMK A01 T01350037  RH  052%=      5-min Rain = 0
KBR1 180730Z 20008KT 14/04 A2977 RMK A01 T01350037  RH  052%=      5-min Rain = 0
KBR1 180731Z 19008KT 14/04 A2977 RMK A01 T01350037  RH  052%=      5-min Rain = 0
KBR1 180732Z 19008KT 13/04 A2977 RMK A01 T01340037  RH  052%=      5-min Rain = 0
KBR1 180733Z 18008KT 13/04 A2977 RMK A01 T01330037  RH  052%=      5-min Rain = 0
KBR1 180734Z 18008KT 13/04 A2977 RMK A01 T01330038  RH  053%=      5-min Rain = 0
KBR1 180735Z 18008KT 13/04 A2977 RMK A01 T01330038  RH  053%=      5-min Rain = 0
KBR1 180736Z 18009KT 13/04 A2977 RMK A01 T01330038  RH  053%=      5-min Rain = 0
KBR1 180737Z 18009KT 13/04 A2977 RMK A01 T01340039  RH  052%=      5-min Rain = 0
KBR1 180738Z 18010KT 14/04 A2977 RMK A01 T01350039  RH  052%=      5-min Rain = 0
KBR1 180739Z 18011KT 14/04 A2977 RMK A01 T01360040  RH  052%=      5-min Rain = 0
KBR1 180740Z 18011KT 14/04 A2977 RMK A01 T01380040  RH  052%=      5-min Rain = 0
KBR1 180741Z 18010KT 14/04 A2977 RMK A01 T01390041  RH  052%=      5-min Rain = 0
KBR1 180742Z 18011KT 14/04 A2977 RMK A01 T01390041  RH  052%=      5-min Rain = 0
KBR1 180743Z 18011KT 14/04 A2976 RMK A01 T01400041  RH  051%=      5-min Rain = 0
KBR1 180744Z 18011KT 14/04 A2976 RMK A01 T01420042  RH  051%=      5-min Rain = 0
KBR1 180745Z 18012KT 14/04 A2976 RMK A01 T01420042  RH  051%=      5-min Rain = 0
KBR1 180746Z 18012KT 14/04 A2976 RMK A01 T01430043  RH  051%=      5-min Rain = 0
KBR1 180747Z 18011KT 15/04 A2977 RMK A01 T01450044  RH  051%=      5-min Rain = 0
KBR1 180748Z 18011KT 15/04 A2976 RMK A01 T01460044  RH  050%=      5-min Rain = 0
KBR1 180749Z 18012KT 15/04 A2977 RMK A01 T01460044  RH  050%=      5-min Rain = 0
KBR1 180750Z 18012KT 15/05 A2977 RMK A01 T01470045  RH  050%=      5-min Rain = 0
KBR1 180751Z 18011KT 15/04 A2977 RMK A01 T01480044  RH  050%=      5-min Rain = 0
KBR1 180752Z 18011KT 15/04 A2977 RMK A01 T01480044  RH  050%=      5-min Rain = 0
KBR1 180753Z 18012KT 15/04 A2977 RMK A01 T01470044  RH  050%=      5-min Rain = 0
KBR1 180754Z 18012KT 15/05 A2977 RMK A01 T01480045  RH  050%=      5-min Rain = 0
KBR1 180755Z 18010KT 15/05 A2977 RMK A01 T01480045  RH  050%=      5-min Rain = 0
KBR1 180756Z 18013KT 15/04 A2977 RMK A01 T01470044  RH  050%=      5-min Rain = 0
KBR1 180757Z 18011KT 15/05 A2977 RMK A01 T01490045  RH  050%=      5-min Rain = 0
KBR1 180758Z 18012KT 15/04 A2977 RMK A01 T01490044  RH  049%=      5-min Rain = 0
KBR1 180759Z 18012KT 15/04 A2977 RMK A01 T01490044  RH  049%=      5-min Rain = 0
KBR1 180800Z 18012KT 15/04 A2977 RMK A01 T01490044  RH  049%=      5-min Rain = 0
KBR1 180801Z 18013KT 15/05 A2977 RMK A01 T01500045  RH  049%=      5-min Rain = 0
KBR1 180802Z 18012KT 15/05 A2977 RMK A01 T01510045  RH  049%=      5-min Rain = 0
KBR1 180803Z 18012KT 15/05 A2977 RMK A01 T01510045  RH  049%=      5-min Rain = 0
KBR1 180804Z 18012KT 15/05 A2977 RMK A01 T01510045  RH  049%=      5-min Rain = 0
KBR1 180805Z 18013KT 15/05 A2977 RMK A01 T01510045  RH  049%=      5-min Rain = 0
KBR1 180806Z 18013KT 15/05 A2977 RMK A01 T01510046  RH  049%=      5-min Rain = 0
KBR1 180807Z 19013KT 15/05 A2977 RMK A01 T01500045  RH  049%=      5-min Rain = 0
KBR1 180808Z 19013KT 15/05 A2977 RMK A01 T01500045  RH  049%=      5-min Rain = 0
KBR1 180809Z 19012KT 15/05 A2977 RMK A01 T01500045  RH  049%=      5-min Rain = 0
KBR1 180810Z 19012KT 15/05 A2977 RMK A01 T01500045  RH  049%=      5-min Rain = 0
KBR1 180811Z 19011KT 15/05 A2977 RMK A01 T01500045  RH  050%=      5-min Rain = 0
KBR1 180812Z 19011KT 15/05 A2977 RMK A01 T01500046  RH  050%=      5-min Rain = 0
KBR1 180813Z 19011KT 15/05 A2977 RMK A01 T01490045  RH  050%=      5-min Rain = 0
KBR1 180814Z 18011KT 15/05 A2977 RMK A01 T01480045  RH  050%=      5-min Rain = 0
KBR1 180815Z 18011KT 15/05 A2977 RMK A01 T01470045  RH  050%=      5-min Rain = 0
KBR1 180816Z 18011KT 15/05 A2977 RMK A01 T01460045  RH  051%=      5-min Rain = 0
KBR1 180817Z 18010KT 15/05 A2977 RMK A01 T01450045  RH  051%=      5-min Rain = 0
KBR1 180818Z 19010KT 14/04 A2977 RMK A01 T01440044  RH  051%=      5-min Rain = 0
KBR1 180819Z 18009KT 14/04 A2977 RMK A01 T01430044  RH  051%=      5-min Rain = 0
KBR1 180820Z 18010KT 14/04 A2977 RMK A01 T01420044  RH  052%=      5-min Rain = 0
KBR1 180821Z 18010KT 14/04 A2977 RMK A01 T01420044  RH  052%=      5-min Rain = 0
KBR1 180822Z 19009KT 14/04 A2977 RMK A01 T01420044  RH  052%=      5-min Rain = 0
KBR1 180823Z 19009KT 14/04 A2977 RMK A01 T01420044  RH  052%=      5-min Rain = 0
KBR1 180824Z 19010KT 14/04 A2977 RMK A01 T01410044  RH  052%=      5-min Rain = 0
KBR1 180825Z 19010KT 14/05 A2977 RMK A01 T01410045  RH  052%=      5-min Rain = 0
KBR1 180826Z 20009KT 14/05 A2977 RMK A01 T01410045  RH  052%=      5-min Rain = 0
KBR1 180827Z 20009KT 14/05 A2977 RMK A01 T01400045  RH  053%=      5-min Rain = 0
KBR1 180828Z 20009KT 14/05 A2977 RMK A01 T01400045  RH  053%=      5-min Rain = 0
KBR1 180829Z 20009KT 14/05 A2977 RMK A01 T01390045  RH  053%=      5-min Rain = 0
KBR1 180830Z 20009KT 14/05 A2977 RMK A01 T01380045  RH  053%=      5-min Rain = 0
KBR1 180831Z 20010KT 14/04 A2977 RMK A01 T01370044  RH  054%=      5-min Rain = 0
KBR1 180832Z 20010KT 14/04 A2977 RMK A01 T01360044  RH  054%=      5-min Rain = 0
KBR1 180833Z 20010KT 14/04 A2977 RMK A01 T01350044  RH  054%=      5-min Rain = 0
KBR1 180834Z 20010KT 14/05 A2977 RMK A01 T01350045  RH  054%=      5-min Rain = 0
KBR1 180835Z 20010KT 14/05 A2977 RMK A01 T01350045  RH  054%=      5-min Rain = 0
KBR1 180836Z 19010KT 14/05 A2976 RMK A01 T01350045  RH  055%=      5-min Rain = 0
KBR1 180837Z 19011KT 14/05 A2976 RMK A01 T01350045  RH  055%=      5-min Rain = 0
KBR1 180838Z 19011KT 14/05 A2976 RMK A01 T01350046  RH  055%=      5-min Rain = 0
KBR1 180839Z 19011KT 14/05 A2976 RMK A01 T01360046  RH  055%=      5-min Rain = 0
KBR1 180840Z 19011KT 14/05 A2976 RMK A01 T01370046  RH  054%=      5-min Rain = 0
KBR1 180841Z 19011KT 14/05 A2976 RMK A01 T01370046  RH  054%=      5-min Rain = 0
KBR1 180842Z 19011KT 14/05 A2976 RMK A01 T01380046  RH  054%=      5-min Rain = 0
KBR1 180843Z 19011KT 14/05 A2976 RMK A01 T01380046  RH  054%=      5-min Rain = 0
KBR1 180844Z 19011KT 14/05 A2976 RMK A01 T01390047  RH  054%=      5-min Rain = 0
KBR1 180845Z 19011KT 14/05 A2976 RMK A01 T01390047  RH  054%=      5-min Rain = 0
KBR1 180846Z 19011KT 14/05 A2976 RMK A01 T01390047  RH  054%=      5-min Rain = 0
KBR1 180847Z 19011KT 14/05 A2976 RMK A01 T01400047  RH  054%=      5-min Rain = 0
KBR1 180848Z 19010KT 14/05 A2976 RMK A01 T01400048  RH  054%=      5-min Rain = 0
KBR1 180849Z 19010KT 14/05 A2976 RMK A01 T01400048  RH  054%=      5-min Rain = 0
KBR1 180850Z 19010KT 14/05 A2976 RMK A01 T01390047  RH  054%=      5-min Rain = 0
KBR1 180851Z 19010KT 14/05 A2976 RMK A01 T01400048  RH  054%=      5-min Rain = 0
KBR1 180852Z 20009KT 14/05 A2976 RMK A01 T01390048  RH  054%=      5-min Rain = 0
KBR1 180853Z 20010KT 14/05 A2976 RMK A01 T01390048  RH  054%=      5-min Rain = 0
KBR1 180854Z 20009KT 14/05 A2976 RMK A01 T01390048  RH  054%=      5-min Rain = 0
KBR1 180855Z 20009KT 14/05 A2976 RMK A01 T01380048  RH  054%=      5-min Rain = 0
KBR1 180856Z 20009KT 14/05 A2976 RMK A01 T01380048  RH  055%=      5-min Rain = 0
KBR1 180857Z 20009KT 14/05 A2976 RMK A01 T01370048  RH  055%=      5-min Rain = 0
KBR1 180858Z 20008KT 14/05 A2976 RMK A01 T01360048  RH  055%=      5-min Rain = 0
KBR1 180859Z 20008KT 14/05 A2976 RMK A01 T01350047  RH  055%=      5-min Rain = 0
KBR1 180900Z 20008KT 14/05 A2976 RMK A01 T01350047  RH  055%=      5-min Rain = 0
KBR1 180901Z 20008KT 13/05 A2976 RMK A01 T01340047  RH  056%=      5-min Rain = 0
KBR1 180902Z 20008KT 13/05 A2976 RMK A01 T01340047  RH  056%=      5-min Rain = 0
KBR1 180903Z 20008KT 13/05 A2976 RMK A01 T01330047  RH  056%=      5-min Rain = 0
KBR1 180904Z 20007KT 13/05 A2976 RMK A01 T01320047  RH  056%=      5-min Rain = 0
KBR1 180905Z 21006KT 13/05 A2976 RMK A01 T01310047  RH  057%=      5-min Rain = 0
KBR1 180906Z 21006KT 13/05 A2976 RMK A01 T01290046  RH  057%=      5-min Rain = 0
KBR1 180907Z 22005KT 13/05 A2976 RMK A01 T01260045  RH  058%=      5-min Rain = 0
KBR1 180908Z 22005KT 12/05 A2976 RMK A01 T01230045  RH  059%=      5-min Rain = 0
KBR1 180909Z 22005KT 12/05 A2976 RMK A01 T01210045  RH  060%=      5-min Rain = 0
KBR1 180910Z 22005KT 12/04 A2976 RMK A01 T01190044  RH  060%=      5-min Rain = 0
KBR1 180911Z 21004KT 12/05 A2976 RMK A01 T01170045  RH  061%=      5-min Rain = 0
KBR1 180912Z 21004KT 12/04 A2976 RMK A01 T01160044  RH  061%=      5-min Rain = 0
KBR1 180913Z 21004KT 12/05 A2976 RMK A01 T01150045  RH  062%=      5-min Rain = 0
KBR1 180914Z 21004KT 11/05 A2976 RMK A01 T01140045  RH  062%=      5-min Rain = 0
KBR1 180915Z 22004KT 11/05 A2976 RMK A01 T01140045  RH  063%=      5-min Rain = 0
KBR1 180916Z 22003KT 11/05 A2976 RMK A01 T01130045  RH  063%=      5-min Rain = 0
KBR1 180917Z 23003KT 11/04 A2976 RMK A01 T01120044  RH  063%=      5-min Rain = 0
KBR1 180918Z 23003KT 11/04 A2976 RMK A01 T01110044  RH  063%=      5-min Rain = 0
KBR1 180919Z 23003KT 11/04 A2976 RMK A01 T01100043  RH  064%=      5-min Rain = 0
KBR1 180920Z 22003KT 11/04 A2976 RMK A01 T01090044  RH  064%=      5-min Rain = 0
KBR1 180921Z 23003KT 11/05 A2976 RMK A01 T01090045  RH  065%=      5-min Rain = 0
KBR1 180922Z 22003KT 11/05 A2976 RMK A01 T01090045  RH  065%=      5-min Rain = 0
KBR1 180923Z 22003KT 11/05 A2976 RMK A01 T01080045  RH  065%=      5-min Rain = 0
KBR1 180924Z 21003KT 11/04 A2976 RMK A01 T01080044  RH  065%=      5-min Rain = 0
KBR1 180925Z 20004KT 11/04 A2976 RMK A01 T01080044  RH  065%=      5-min Rain = 0
KBR1 180926Z 20003KT 11/04 A2976 RMK A01 T01070044  RH  065%=      5-min Rain = 0
KBR1 180927Z 20003KT 11/05 A2975 RMK A01 T01070045  RH  065%=      5-min Rain = 0
KBR1 180928Z 20004KT 11/05 A2975 RMK A01 T01070045  RH  065%=      5-min Rain = 0
KBR1 180929Z 20004KT 11/05 A2975 RMK A01 T01080046  RH  065%=      5-min Rain = 0
KBR1 180930Z 21004KT 11/05 A2975 RMK A01 T01080046  RH  065%=      5-min Rain = 0
KBR1 180931Z 21005KT 11/05 A2975 RMK A01 T01090046  RH  065%=      5-min Rain = 0
KBR1 180932Z 21004KT 11/05 A2975 RMK A01 T01100046  RH  065%=      5-min Rain = 0
KBR1 180933Z 22005KT 11/05 A2975 RMK A01 T01090045  RH  064%=      5-min Rain = 0
KBR1 180934Z 21005KT 11/05 A2975 RMK A01 T01090045  RH  064%=      5-min Rain = 0
KBR1 180935Z 21005KT 11/05 A2975 RMK A01 T01100045  RH  064%=      5-min Rain = 0
KBR1 180936Z 21005KT 11/05 A2975 RMK A01 T01100045  RH  064%=      5-min Rain = 0
KBR1 180937Z 22005KT 11/05 A2975 RMK A01 T01110045  RH  064%=      5-min Rain = 0
KBR1 180938Z 22005KT 11/05 A2975 RMK A01 T01110045  RH  064%=      5-min Rain = 0
KBR1 180939Z 22004KT 11/04 A2975 RMK A01 T01100044  RH  064%=      5-min Rain = 0
KBR1 180940Z 21005KT 11/04 A2975 RMK A01 T01080043  RH  064%=      5-min Rain = 0
KBR1 180941Z 21005KT 11/04 A2975 RMK A01 T01070043  RH  065%=      5-min Rain = 0
KBR1 180942Z 21005KT 11/04 A2975 RMK A01 T01070044  RH  065%=      5-min Rain = 0
KBR1 180943Z 21005KT 11/05 A2975 RMK A01 T01070045  RH  065%=      5-min Rain = 0
KBR1 180944Z 21005KT 11/05 A2975 RMK A01 T01080045  RH  065%=      5-min Rain = 0
KBR1 180945Z 21005KT 11/05 A2975 RMK A01 T01080046  RH  065%=      5-min Rain = 0
KBR1 180946Z 21006KT 11/05 A2975 RMK A01 T01090046  RH  065%=      5-min Rain = 0
KBR1 180947Z 21006KT 11/05 A2975 RMK A01 T01090047  RH  065%=      5-min Rain = 0
KBR1 180948Z 21007KT 11/05 A2975 RMK A01 T01100047  RH  065%=      5-min Rain = 0
KBR1 180949Z 21006KT 11/05 A2975 RMK A01 T01100048  RH  066%=      5-min Rain = 0
KBR1 180950Z 21006KT 11/05 A2975 RMK A01 T01120050  RH  065%=      5-min Rain = 0
KBR1 180951Z 21006KT 11/05 A2974 RMK A01 T01130050  RH  065%=      5-min Rain = 0
KBR1 180952Z 22006KT 11/05 A2974 RMK A01 T01130050  RH  065%=      5-min Rain = 0
KBR1 180953Z 22006KT 11/05 A2974 RMK A01 T01130050  RH  065%=      5-min Rain = 0
KBR1 180954Z 22006KT 11/05 A2974 RMK A01 T01130050  RH  065%=      5-min Rain = 0
KBR1 180955Z 22006KT 11/05 A2974 RMK A01 T01130050  RH  065%=      5-min Rain = 0
KBR1 180956Z 22006KT 11/05 A2974 RMK A01 T01120049  RH  065%=      5-min Rain = 0
KBR1 180957Z 22005KT 11/05 A2974 RMK A01 T01110049  RH  066%=      5-min Rain = 0
KBR1 180958Z 22005KT 11/05 A2974 RMK A01 T01100049  RH  066%=      5-min Rain = 0
KBR1 180959Z 22005KT 11/05 A2974 RMK A01 T01090049  RH  066%=      5-min Rain = 0
KBR1 181000Z 22005KT 11/05 A2975 RMK A01 T01080049  RH  067%=      5-min Rain = 0
KBR1 181001Z 22006KT 11/05 A2975 RMK A01 T01080049  RH  067%=      5-min Rain = 0
KBR1 181002Z 22006KT 11/05 A2975 RMK A01 T01090050  RH  067%=      5-min Rain = 0
KBR1 181003Z 22006KT 11/05 A2975 RMK A01 T01110051  RH  067%=      5-min Rain = 0
KBR1 181004Z 22006KT 11/05 A2975 RMK A01 T01120051  RH  066%=      5-min Rain = 0
KBR1 181005Z 22007KT 11/05 A2975 RMK A01 T01140053  RH  066%=      5-min Rain = 0
KBR1 181006Z 22006KT 11/05 A2975 RMK A01 T01140052  RH  066%=      5-min Rain = 0
KBR1 181007Z 22006KT 12/05 A2975 RMK A01 T01150052  RH  065%=      5-min Rain = 0
KBR1 181008Z 21006KT 12/05 A2975 RMK A01 T01150052  RH  065%=      5-min Rain = 0
KBR1 181009Z 21006KT 11/05 A2975 RMK A01 T01140052  RH  065%=      5-min Rain = 0
KBR1 181010Z 21006KT 11/05 A2975 RMK A01 T01140052  RH  066%=      5-min Rain = 0
KBR1 181011Z 21006KT 11/05 A2975 RMK A01 T01130051  RH  066%=      5-min Rain = 0
KBR1 181012Z 21006KT 11/05 A2975 RMK A01 T01120051  RH  066%=      5-min Rain = 0
KBR1 181013Z 21006KT 11/05 A2975 RMK A01 T01110051  RH  066%=      5-min Rain = 0
KBR1 181014Z 21006KT 11/05 A2975 RMK A01 T01110051  RH  067%=      5-min Rain = 0
KBR1 181015Z 21007KT 11/05 A2975 RMK A01 T01100052  RH  067%=      5-min Rain = 0
KBR1 181016Z 21007KT 11/05 A2975 RMK A01 T01100052  RH  067%=      5-min Rain = 0
KBR1 181017Z 21007KT 11/05 A2975 RMK A01 T01100052  RH  067%=      5-min Rain = 0
KBR1 181018Z 20007KT 11/05 A2975 RMK A01 T01100052  RH  067%=      5-min Rain = 0
KBR1 181019Z 20007KT 11/05 A2975 RMK A01 T01110053  RH  067%=      5-min Rain = 0
KBR1 181020Z 20008KT 11/05 A2975 RMK A01 T01120053  RH  067%=      5-min Rain = 0
KBR1 181021Z 20008KT 11/05 A2975 RMK A01 T01120053  RH  067%=      5-min Rain = 0
KBR1 181022Z 20008KT 11/05 A2975 RMK A01 T01130054  RH  067%=      5-min Rain = 0
KBR1 181023Z 20008KT 12/06 A2975 RMK A01 T01160056  RH  067%=      5-min Rain = 0
KBR1 181024Z 20009KT 12/06 A2975 RMK A01 T01170055  RH  066%=      5-min Rain = 0
KBR1 181025Z 20009KT 12/06 A2975 RMK A01 T01190056  RH  066%=      5-min Rain = 0
KBR1 181026Z 20009KT 12/06 A2975 RMK A01 T01200056  RH  065%=      5-min Rain = 0
KBR1 181027Z 20009KT 12/06 A2975 RMK A01 T01210056  RH  065%=      5-min Rain = 0
KBR1 181028Z 20009KT 12/06 A2975 RMK A01 T01210056  RH  064%=      5-min Rain = 0
KBR1 181029Z 20009KT 12/06 A2975 RMK A01 T01210056  RH  064%=      5-min Rain = 0
KBR1 181030Z 20009KT 12/06 A2975 RMK A01 T01220057  RH  064%=      5-min Rain = 0
KBR1 181031Z 20008KT 12/06 A2975 RMK A01 T01240057  RH  064%=      5-min Rain = 0
KBR1 181032Z 20009KT 12/06 A2975 RMK A01 T01230056  RH  064%=      5-min Rain = 0
KBR1 181033Z 20008KT 12/06 A2975 RMK A01 T01230057  RH  064%=      5-min Rain = 0
KBR1 181034Z 20008KT 12/06 A2975 RMK A01 T01230056  RH  064%=      5-min Rain = 0
KBR1 181035Z 20009KT 12/06 A2974 RMK A01 T01230056  RH  064%=      5-min Rain = 0
KBR1 181036Z 20008KT 12/06 A2974 RMK A01 T01220056  RH  064%=      5-min Rain = 0
KBR1 181037Z 20008KT 12/06 A2974 RMK A01 T01220056  RH  064%=      5-min Rain = 0
KBR1 181038Z 20009KT 12/06 A2974 RMK A01 T01210056  RH  064%=      5-min Rain = 0
KBR1 181039Z 20008KT 12/06 A2974 RMK A01 T01210056  RH  065%=      5-min Rain = 0
KBR1 181040Z 20008KT 12/06 A2974 RMK A01 T01200056  RH  065%=      5-min Rain = 0
KBR1 181041Z 19009KT 12/06 A2974 RMK A01 T01200056  RH  065%=      5-min Rain = 0
KBR1 181042Z 20008KT 12/06 A2974 RMK A01 T01190056  RH  065%=      5-min Rain = 0
KBR1 181043Z 19009KT 12/06 A2974 RMK A01 T01190056  RH  065%=      5-min Rain = 0
KBR1 181044Z 19008KT 12/06 A2974 RMK A01 T01190056  RH  065%=      5-min Rain = 0
KBR1 181045Z 20009KT 12/06 A2974 RMK A01 T01180056  RH  066%=      5-min Rain = 0
KBR1 181046Z 20009KT 12/06 A2974 RMK A01 T01200058  RH  066%=      5-min Rain = 0
KBR1 181047Z 19008KT 12/06 A2974 RMK A01 T01220058  RH  065%=      5-min Rain = 0
KBR1 181048Z 20007KT 12/06 A2974 RMK A01 T01220058  RH  065%=      5-min Rain = 0
KBR1 181049Z 20008KT 12/06 A2974 RMK A01 T01210057  RH  065%=      5-min Rain = 0
KBR1 181050Z 20009KT 12/06 A2974 RMK A01 T01210057  RH  065%=      5-min Rain = 0
KBR1 181051Z 20009KT 12/06 A2974 RMK A01 T01200057  RH  065%=      5-min Rain = 0
KBR1 181052Z 21009KT 12/06 A2974 RMK A01 T01210058  RH  065%=      5-min Rain = 0
KBR1 181053Z 20009KT 12/06 A2974 RMK A01 T01220058  RH  065%=      5-min Rain = 0
KBR1 181054Z 20009KT 12/06 A2974 RMK A01 T01220058  RH  065%=      5-min Rain = 0
KBR1 181055Z 20009KT 12/06 A2974 RMK A01 T01220058  RH  065%=      5-min Rain = 0
KBR1 181056Z 20008KT 12/06 A2974 RMK A01 T01220058  RH  065%=      5-min Rain = 0
KBR1 181057Z 20008KT 12/06 A2974 RMK A01 T01210058  RH  065%=      5-min Rain = 0
KBR1 181058Z 20008KT 12/06 A2974 RMK A01 T01210058  RH  065%=      5-min Rain = 0
KBR1 181059Z 20008KT 12/06 A2974 RMK A01 T01200058  RH  066%=      5-min Rain = 0
KBR1 181100Z 20008KT 12/06 A2974 RMK A01 T01190058  RH  066%=      5-min Rain = 0
KBR1 181101Z 19008KT 12/06 A2974 RMK A01 T01170057  RH  066%=      5-min Rain = 0
KBR1 181102Z 20008KT 12/06 A2974 RMK A01 T01160056  RH  067%=      5-min Rain = 0
KBR1 181103Z 20009KT 12/06 A2974 RMK A01 T01150057  RH  067%=      5-min Rain = 0
KBR1 181104Z 20009KT 12/06 A2974 RMK A01 T01150057  RH  068%=      5-min Rain = 0
KBR1 181105Z 20009KT 12/06 A2974 RMK A01 T01150057  RH  068%=      5-min Rain = 0
KBR1 181106Z 20009KT 12/06 A2974 RMK A01 T01150057  RH  068%=      5-min Rain = 0
KBR1 181107Z 20010KT 12/06 A2974 RMK A01 T01150057  RH  068%=      5-min Rain = 0
KBR1 181108Z 20009KT 12/06 A2974 RMK A01 T01150058  RH  068%=      5-min Rain = 0
KBR1 181109Z 20009KT 12/06 A2974 RMK A01 T01150058  RH  068%=      5-min Rain = 0
KBR1 181110Z 20010KT 12/06 A2974 RMK A01 T01150058  RH  068%=      5-min Rain = 0
KBR1 181111Z 20009KT 12/06 A2974 RMK A01 T01150058  RH  068%=      5-min Rain = 0
KBR1 181112Z 20010KT 12/06 A2974 RMK A01 T01150058  RH  068%=      5-min Rain = 0
KBR1 181113Z 20009KT 12/06 A2974 RMK A01 T01150058  RH  068%=      5-min Rain = 0
KBR1 181114Z 20010KT 12/06 A2974 RMK A01 T01150058  RH  068%=      5-min Rain = 0
KBR1 181115Z 20009KT 12/06 A2974 RMK A01 T01150058  RH  068%=      5-min Rain = 0
KBR1 181116Z 20009KT 12/06 A2974 RMK A01 T01150059  RH  068%=      5-min Rain = 0
KBR1 181117Z 20009KT 11/06 A2974 RMK A01 T01140058  RH  069%=      5-min Rain = 0
KBR1 181118Z 20009KT 11/06 A2974 RMK A01 T01130058  RH  069%=      5-min Rain = 0
KBR1 181119Z 20009KT 11/06 A2974 RMK A01 T01130058  RH  069%=      5-min Rain = 0
KBR1 181120Z 21009KT 11/06 A2974 RMK A01 T01130058  RH  069%=      5-min Rain = 0
KBR1 181121Z 20009KT 11/06 A2974 RMK A01 T01120058  RH  069%=      5-min Rain = 0
KBR1 181122Z 20009KT 11/06 A2974 RMK A01 T01120058  RH  070%=      5-min Rain = 0
KBR1 181123Z 21009KT 11/06 A2974 RMK A01 T01120059  RH  070%=      5-min Rain = 0
KBR1 181124Z 21008KT 11/06 A2974 RMK A01 T01110058  RH  070%=      5-min Rain = 0
KBR1 181125Z 20008KT 11/06 A2974 RMK A01 T01100058  RH  070%=      5-min Rain = 0
KBR1 181126Z 21008KT 11/06 A2974 RMK A01 T01100058  RH  071%=      5-min Rain = 0
KBR1 181127Z 20008KT 11/06 A2974 RMK A01 T01090058  RH  071%=      5-min Rain = 0
KBR1 181128Z 20008KT 11/06 A2974 RMK A01 T01080058  RH  071%=      5-min Rain = 0
KBR1 181129Z 20007KT 11/06 A2974 RMK A01 T01080058  RH  071%=      5-min Rain = 0
KBR1 181130Z 20007KT 11/06 A2974 RMK A01 T01070058  RH  072%=      5-min Rain = 0
KBR1 181131Z 20007KT 11/06 A2974 RMK A01 T01070058  RH  072%=      5-min Rain = 0
KBR1 181132Z 20007KT 11/06 A2974 RMK A01 T01070058  RH  072%=      5-min Rain = 0
KBR1 181133Z 20006KT 11/06 A2974 RMK A01 T01060058  RH  072%=      5-min Rain = 0
KBR1 181134Z 20006KT 11/06 A2974 RMK A01 T01050058  RH  072%=      5-min Rain = 0
KBR1 181135Z 19006KT 11/06 A2975 RMK A01 T01050058  RH  073%=      5-min Rain = 0
KBR1 181136Z 19006KT 11/06 A2975 RMK A01 T01050058  RH  073%=      5-min Rain = 0
KBR1 181137Z 19005KT 11/06 A2975 RMK A01 T01050058  RH  073%=      5-min Rain = 0
KBR1 181138Z 19006KT 11/06 A2975 RMK A01 T01060059  RH  073%=      5-min Rain = 0
KBR1 181139Z 19005KT 11/06 A2975 RMK A01 T01060059  RH  073%=      5-min Rain = 0
KBR1 181140Z 19005KT 11/06 A2975 RMK A01 T01060059  RH  073%=      5-min Rain = 0
KBR1 181141Z 18005KT 11/06 A2975 RMK A01 T01060059  RH  073%=      5-min Rain = 0
KBR1 181142Z 18005KT 11/06 A2975 RMK A01 T01060059  RH  073%=      5-min Rain = 0
KBR1 181143Z 17005KT 11/06 A2975 RMK A01 T01060059  RH  072%=      5-min Rain = 0
KBR1 181144Z 17005KT 11/06 A2975 RMK A01 T01060058  RH  072%=      5-min Rain = 0
KBR1 181145Z 17006KT 11/06 A2975 RMK A01 T01050057  RH  072%=      5-min Rain = 0
KBR1 181146Z 18006KT 10/06 A2975 RMK A01 T01040056  RH  072%=      5-min Rain = 0
KBR1 181147Z 18006KT 10/06 A2974 RMK A01 T01040056  RH  072%=      5-min Rain = 0
KBR1 181148Z 18007KT 10/06 A2974 RMK A01 T01040056  RH  072%=      5-min Rain = 0
KBR1 181149Z 18007KT 10/06 A2974 RMK A01 T01040057  RH  073%=      5-min Rain = 0
KBR1 181150Z 19007KT 11/06 A2974 RMK A01 T01050058  RH  073%=      5-min Rain = 0
KBR1 181151Z 19007KT 11/06 A2974 RMK A01 T01060058  RH  072%=      5-min Rain = 0
KBR1 181152Z 19007KT 11/06 A2974 RMK A01 T01060058  RH  072%=      5-min Rain = 0
KBR1 181153Z 19007KT 11/06 A2974 RMK A01 T01060058  RH  072%=      5-min Rain = 0
KBR1 181154Z 19006KT 11/06 A2974 RMK A01 T01080059  RH  072%=      5-min Rain = 0
KBR1 181155Z 18006KT 11/06 A2974 RMK A01 T01080058  RH  071%=      5-min Rain = 0
KBR1 181156Z 18006KT 11/06 A2975 RMK A01 T01080058  RH  071%=      5-min Rain = 0
KBR1 181157Z 19006KT 11/06 A2975 RMK A01 T01070058  RH  072%=      5-min Rain = 0
KBR1 181158Z 19006KT 11/06 A2975 RMK A01 T01070058  RH  072%=      5-min Rain = 0
KBR1 181159Z 19006KT 11/06 A2975 RMK A01 T01070058  RH  072%=      5-min Rain = 0
KBR1 181200Z 18006KT 11/06 A2975 RMK A01 T01070058  RH  072%=      5-min Rain = 0
KBR1 181201Z 18006KT 11/06 A2975 RMK A01 T01070058  RH  072%=      5-min Rain = 0
KBR1 181202Z 18006KT 11/06 A2975 RMK A01 T01060057  RH  072%=      5-min Rain = 0
KBR1 181203Z 18006KT 11/06 A2975 RMK A01 T01050057  RH  072%=      5-min Rain = 0
KBR1 181204Z 18006KT 10/06 A2975 RMK A01 T01040056  RH  072%=      5-min Rain = 0
KBR1 181205Z 19007KT 10/06 A2975 RMK A01 T01040056  RH  072%=      5-min Rain = 0
KBR1 181206Z 19008KT 10/06 A2975 RMK A01 T01040057  RH  073%=      5-min Rain = 0
KBR1 181207Z 19008KT 10/06 A2975 RMK A01 T01040057  RH  073%=      5-min Rain = 0
KBR1 181208Z 18008KT 10/06 A2975 RMK A01 T01040057  RH  073%=      5-min Rain = 0
KBR1 181209Z 18008KT 10/06 A2975 RMK A01 T01040057  RH  073%=      5-min Rain = 0
KBR1 181210Z 18009KT 10/06 A2975 RMK A01 T01040057  RH  073%=      5-min Rain = 0
KBR1 181211Z 18009KT 10/06 A2975 RMK A01 T01040057  RH  073%=      5-min Rain = 0
KBR1 181212Z 18009KT 10/06 A2975 RMK A01 T01040057  RH  073%=      5-min Rain = 0
KBR1 181213Z 18009KT 10/06 A2975 RMK A01 T01040057  RH  073%=      5-min Rain = 0
KBR1 181214Z 18009KT 10/06 A2975 RMK A01 T01040057  RH  073%=      5-min Rain = 0
KBR1 181215Z 18008KT 10/06 A2975 RMK A01 T01040057  RH  073%=      5-min Rain = 0
KBR1 181216Z 18009KT 10/06 A2975 RMK A01 T01040057  RH  072%=      5-min Rain = 0
KBR1 181217Z 18009KT 10/06 A2975 RMK A01 T01040057  RH  072%=      5-min Rain = 0
KBR1 181218Z 18009KT 10/06 A2975 RMK A01 T01040057  RH  072%=      5-min Rain = 0
KBR1 181219Z 18008KT 10/06 A2975 RMK A01 T01040057  RH  072%=      5-min Rain = 0
KBR1 181220Z 19008KT 10/06 A2975 RMK A01 T01040056  RH  072%=      5-min Rain = 0
KBR1 181221Z 19008KT 11/06 A2975 RMK A01 T01050057  RH  072%=      5-min Rain = 0
KBR1 181222Z 19008KT 11/06 A2975 RMK A01 T01060058  RH  072%=      5-min Rain = 0
KBR1 181223Z 19007KT 11/06 A2975 RMK A01 T01070058  RH  071%=      5-min Rain = 0
KBR1 181224Z 19007KT 11/06 A2975 RMK A01 T01070057  RH  071%=      5-min Rain = 0
KBR1 181225Z 19007KT 11/06 A2975 RMK A01 T01070057  RH  071%=      5-min Rain = 0
KBR1 181226Z 19007KT 11/06 A2975 RMK A01 T01060057  RH  071%=      5-min Rain = 0
KBR1 181227Z 19007KT 11/06 A2975 RMK A01 T01060057  RH  071%=      5-min Rain = 0
KBR1 181228Z 19007KT 11/06 A2975 RMK A01 T01060057  RH  072%=      5-min Rain = 0
KBR1 181229Z 19007KT 11/06 A2975 RMK A01 T01060057  RH  072%=      5-min Rain = 0
KBR1 181230Z 19007KT 11/06 A2975 RMK A01 T01060057  RH  072%=      5-min Rain = 0
KBR1 181231Z 19007KT 11/06 A2975 RMK A01 T01060057  RH  072%=      5-min Rain = 0
KBR1 181232Z 19006KT 11/06 A2975 RMK A01 T01060056  RH  072%=      5-min Rain = 0
KBR1 181233Z 19006KT 11/06 A2975 RMK A01 T01060057  RH  072%=      5-min Rain = 0
KBR1 181234Z 19006KT 11/06 A2975 RMK A01 T01050056  RH  072%=      5-min Rain = 0
KBR1 181235Z 20006KT 10/06 A2975 RMK A01 T01040056  RH  072%=      5-min Rain = 0
KBR1 181236Z 19006KT 10/06 A2975 RMK A01 T01040056  RH  072%=      5-min Rain = 0
KBR1 181237Z 20005KT 10/06 A2975 RMK A01 T01040056  RH  072%=      5-min Rain = 0
KBR1 181238Z 20006KT 10/06 A2975 RMK A01 T01040056  RH  072%=      5-min Rain = 0
KBR1 181239Z 19005KT 10/06 A2975 RMK A01 T01030056  RH  072%=      5-min Rain = 0
KBR1 181240Z 20006KT 10/06 A2975 RMK A01 T01030056  RH  073%=      5-min Rain = 0
KBR1 181241Z 20005KT 10/06 A2975 RMK A01 T01040056  RH  073%=      5-min Rain = 0
KBR1 181242Z 20005KT 10/06 A2975 RMK A01 T01030056  RH  072%=      5-min Rain = 0
KBR1 181243Z 20005KT 10/06 A2975 RMK A01 T01030056  RH  072%=      5-min Rain = 0
KBR1 181244Z 20005KT 10/06 A2975 RMK A01 T01030056  RH  072%=      5-min Rain = 0
KBR1 181245Z 20005KT 10/06 A2975 RMK A01 T01030056  RH  073%=      5-min Rain = 0
KBR1 181246Z 20005KT 10/06 A2975 RMK A01 T01030056  RH  073%=      5-min Rain = 0
KBR1 181247Z 21005KT 10/06 A2975 RMK A01 T01030056  RH  073%=      5-min Rain = 0
KBR1 181248Z 21006KT 10/06 A2975 RMK A01 T01030056  RH  073%=      5-min Rain = 0
KBR1 181249Z 20006KT 10/06 A2975 RMK A01 T01040057  RH  073%=      5-min Rain = 0
KBR1 181250Z 21006KT 11/06 A2974 RMK A01 T01050057  RH  072%=      5-min Rain = 0
KBR1 181251Z 20006KT 11/06 A2974 RMK A01 T01050057  RH  072%=      5-min Rain = 0
KBR1 181252Z 20007KT 11/06 A2974 RMK A01 T01060058  RH  072%=      5-min Rain = 0
KBR1 181253Z 20007KT 11/06 A2974 RMK A01 T01070057  RH  072%=      5-min Rain = 0
KBR1 181254Z 20007KT 11/06 A2974 RMK A01 T01070057  RH  072%=      5-min Rain = 0
KBR1 181255Z 20008KT 11/06 A2974 RMK A01 T01070057  RH  071%=      5-min Rain = 0
KBR1 181256Z 20007KT 11/06 A2974 RMK A01 T01080058  RH  071%=      5-min Rain = 0
KBR1 181257Z 20008KT 11/06 A2974 RMK A01 T01080058  RH  071%=      5-min Rain = 0
KBR1 181258Z 19008KT 11/06 A2974 RMK A01 T01080057  RH  071%=      5-min Rain = 0
KBR1 181259Z 20008KT 11/06 A2974 RMK A01 T01080057  RH  071%=      5-min Rain = 0
KBR1 181300Z 20009KT 11/06 A2974 RMK A01 T01090058  RH  071%=      5-min Rain = 0
KBR1 181301Z 19009KT 11/06 A2974 RMK A01 T01080058  RH  071%=      5-min Rain = 0
KBR1 181302Z 20009KT 11/06 A2974 RMK A01 T01090058  RH  071%=      5-min Rain = 0
KBR1 181303Z 20009KT 11/06 A2974 RMK A01 T01090059  RH  071%=      5-min Rain = 0
KBR1 181304Z 20008KT 11/06 A2974 RMK A01 T01100060  RH  071%=      5-min Rain = 0
KBR1 181305Z 20009KT 11/06 A2974 RMK A01 T01120060  RH  070%=      5-min Rain = 0
KBR1 181306Z 20009KT 11/06 A2974 RMK A01 T01130060  RH  070%=      5-min Rain = 0
KBR1 181307Z 19009KT 11/06 A2974 RMK A01 T01140060  RH  070%=      5-min Rain = 0
KBR1 181308Z 19009KT 12/06 A2974 RMK A01 T01150060  RH  069%=      5-min Rain = 0
KBR1 181309Z 19008KT 12/06 A2974 RMK A01 T01150060  RH  069%=      5-min Rain = 0
KBR1 181310Z 20007KT 12/06 A2974 RMK A01 T01150060  RH  069%=      5-min Rain = 0
KBR1 181311Z 19008KT 12/06 A2974 RMK A01 T01150059  RH  069%=      5-min Rain = 0
KBR1 181312Z 20007KT 12/06 A2974 RMK A01 T01160060  RH  069%=      5-min Rain = 0
KBR1 181313Z 20008KT 12/06 A2974 RMK A01 T01160060  RH  068%=      5-min Rain = 0
KBR1 181314Z 21007KT 12/06 A2974 RMK A01 T01160059  RH  068%=      5-min Rain = 0
KBR1 181315Z 21007KT 12/06 A2974 RMK A01 T01150060  RH  069%=      5-min Rain = 0
KBR1 181316Z 21008KT 12/06 A2974 RMK A01 T01160060  RH  069%=      5-min Rain = 0
KBR1 181317Z 21008KT 12/06 A2974 RMK A01 T01160060  RH  069%=      5-min Rain = 0
KBR1 181318Z 21008KT 12/06 A2974 RMK A01 T01160061  RH  069%=      5-min Rain = 0
KBR1 181319Z 21008KT 12/06 A2974 RMK A01 T01170061  RH  069%=      5-min Rain = 0
KBR1 181320Z 21008KT 12/06 A2974 RMK A01 T01170061  RH  068%=      5-min Rain = 0
KBR1 181321Z 21009KT 12/06 A2974 RMK A01 T01190061  RH  068%=      5-min Rain = 0
KBR1 181322Z 21009KT 12/06 A2974 RMK A01 T01200062  RH  067%=      5-min Rain = 0
KBR1 181323Z 21008KT 12/06 A2974 RMK A01 T01210062  RH  067%=      5-min Rain = 0
KBR1 181324Z 21007KT 12/06 A2974 RMK A01 T01210061  RH  067%=      5-min Rain = 0
KBR1 181325Z 21007KT 12/06 A2974 RMK A01 T01220061  RH  067%=      5-min Rain = 0
KBR1 181326Z 20007KT 12/06 A2974 RMK A01 T01220061  RH  067%=      5-min Rain = 0
KBR1 181327Z 20006KT 12/06 A2974 RMK A01 T01220062  RH  067%=      5-min Rain = 0
KBR1 181328Z 20006KT 12/06 A2974 RMK A01 T01210061  RH  067%=      5-min Rain = 0
KBR1 181329Z 20007KT 12/06 A2974 RMK A01 T01210061  RH  067%=      5-min Rain = 0
KBR1 181330Z 20007KT 12/06 A2974 RMK A01 T01210061  RH  067%=      5-min Rain = 0
KBR1 181331Z 19007KT 12/06 A2974 RMK A01 T01220061  RH  066%=      5-min Rain = 0
KBR1 181332Z 20008KT 12/06 A2974 RMK A01 T01230061  RH  066%=      5-min Rain = 0
KBR1 181333Z 19008KT 12/06 A2974 RMK A01 T01230061  RH  066%=      5-min Rain = 0
KBR1 181334Z 19007KT 12/06 A2974 RMK A01 T01240062  RH  066%=      5-min Rain = 0
KBR1 181335Z 20008KT 12/06 A2974 RMK A01 T01240062  RH  066%=      5-min Rain = 0
KBR1 181336Z 19009KT 13/06 A2974 RMK A01 T01250062  RH  065%=      5-min Rain = 0
KBR1 181337Z 19008KT 13/06 A2974 RMK A01 T01250061  RH  065%=      5-min Rain = 0
KBR1 181338Z 20008KT 13/06 A2974 RMK A01 T01260062  RH  065%=      5-min Rain = 0
KBR1 181339Z 21010KT 13/06 A2974 RMK A01 T01270062  RH  065%=      5-min Rain = 0
KBR1 181340Z 21008KT 13/06 A2974 RMK A01 T01280063  RH  064%=      5-min Rain = 0
KBR1 181341Z 20008KT 13/06 A2974 RMK A01 T01290063  RH  064%=      5-min Rain = 0
KBR1 181342Z 21008KT 13/06 A2974 RMK A01 T01280063  RH  065%=      5-min Rain = 0
KBR1 181343Z 21008KT 13/06 A2974 RMK A01 T01280063  RH  065%=      5-min Rain = 0
KBR1 181344Z 21008KT 13/06 A2974 RMK A01 T01280063  RH  065%=      5-min Rain = 0
KBR1 181345Z 20008KT 13/06 A2974 RMK A01 T01280063  RH  065%=      5-min Rain = 0
KBR1 181346Z 23008KT 13/06 A2974 RMK A01 T01280063  RH  065%=      5-min Rain = 0
KBR1 181347Z 23008KT 13/06 A2975 RMK A01 T01270064  RH  065%=      5-min Rain = 0
KBR1 181348Z 23007KT 13/06 A2975 RMK A01 T01270064  RH  065%=      5-min Rain = 0
KBR1 181349Z 23007KT 13/06 A2975 RMK A01 T01270064  RH  066%=      5-min Rain = 0
KBR1 181350Z 23007KT 13/06 A2975 RMK A01 T01270064  RH  066%=      5-min Rain = 0
KBR1 181351Z 22006KT 13/06 A2974 RMK A01 T01260064  RH  066%=      5-min Rain = 0
KBR1 181352Z 22006KT 13/06 A2974 RMK A01 T01260064  RH  066%=      5-min Rain = 0
KBR1 181353Z 21006KT 13/07 A2974 RMK A01 T01260065  RH  066%=      5-min Rain = 0
KBR1 181354Z 21006KT 13/07 A2974 RMK A01 T01260065  RH  066%=      5-min Rain = 0
KBR1 181355Z 21006KT 13/07 A2974 RMK A01 T01270065  RH  066%=      5-min Rain = 0
KBR1 181356Z 21006KT 13/06 A2974 RMK A01 T01280064  RH  065%=      5-min Rain = 0
KBR1 181357Z 21006KT 13/06 A2974 RMK A01 T01290064  RH  065%=      5-min Rain = 0
KBR1 181358Z 21006KT 13/07 A2974 RMK A01 T01290065  RH  065%=      5-min Rain = 0
KBR1 181359Z 21006KT 13/07 A2974 RMK A01 T01300065  RH  064%=      5-min Rain = 0
KBR1 181400Z 21005KT 13/07 A2974 RMK A01 T01310065  RH  064%=      5-min Rain = 0
KBR1 181401Z 21006KT 13/07 A2974 RMK A01 T01310065  RH  064%=      5-min Rain = 0
KBR1 181402Z 21005KT 13/06 A2974 RMK A01 T01320064  RH  064%=      5-min Rain = 0
KBR1 181403Z 21006KT 13/07 A2974 RMK A01 T01320065  RH  064%=      5-min Rain = 0
KBR1 181404Z 21005KT 13/07 A2974 RMK A01 T01330065  RH  064%=      5-min Rain = 0
KBR1 181405Z 21005KT 13/07 A2974 RMK A01 T01340066  RH  063%=      5-min Rain = 0
KBR1 181406Z 20006KT 13/07 A2974 RMK A01 T01340066  RH  063%=      5-min Rain = 0
KBR1 181407Z 20005KT 14/07 A2974 RMK A01 T01350066  RH  063%=      5-min Rain = 0
KBR1 181408Z 21007KT 14/07 A2974 RMK A01 T01360066  RH  063%=      5-min Rain = 0
KBR1 181409Z 21006KT 14/07 A2974 RMK A01 T01370067  RH  063%=      5-min Rain = 0
KBR1 181410Z 21006KT 14/07 A2974 RMK A01 T01380067  RH  062%=      5-min Rain = 0
KBR1 181411Z 21006KT 14/07 A2974 RMK A01 T01390068  RH  062%=      5-min Rain = 0
KBR1 181412Z 22006KT 14/07 A2974 RMK A01 T01400068  RH  062%=      5-min Rain = 0
KBR1 181413Z 21007KT 14/07 A2974 RMK A01 T01410069  RH  061%=      5-min Rain = 0
KBR1 181414Z 21008KT 14/07 A2974 RMK A01 T01420068  RH  061%=      5-min Rain = 0
KBR1 181415Z 21008KT 14/07 A2974 RMK A01 T01420068  RH  061%=      5-min Rain = 0
KBR1 181416Z 21007KT 14/07 A2975 RMK A01 T01430069  RH  061%=      5-min Rain = 0
KBR1 181417Z 22007KT 14/07 A2975 RMK A01 T01440070  RH  061%=      5-min Rain = 0
KBR1 181418Z 22007KT 15/07 A2975 RMK A01 T01460070  RH  061%=      5-min Rain = 0
KBR1 181419Z 21008KT 15/07 A2974 RMK A01 T01480071  RH  060%=      5-min Rain = 0
KBR1 181420Z 22007KT 15/07 A2975 RMK A01 T01500072  RH  059%=      5-min Rain = 0
KBR1 181421Z 21008KT 15/07 A2975 RMK A01 T01520072  RH  059%=      5-min Rain = 0
KBR1 181422Z 21007KT 15/07 A2975 RMK A01 T01530071  RH  058%=      5-min Rain = 0
KBR1 181423Z 21008KT 15/07 A2975 RMK A01 T01540073  RH  058%=      5-min Rain = 0
KBR1 181424Z 21009KT 16/07 A2975 RMK A01 T01550072  RH  058%=      5-min Rain = 0
KBR1 181425Z 21007KT 16/07 A2975 RMK A01 T01550071  RH  058%=      5-min Rain = 0
KBR1 181426Z 21008KT 16/07 A2975 RMK A01 T01560072  RH  057%=      5-min Rain = 0
KBR1 181427Z 21009KT 16/07 A2975 RMK A01 T01560072  RH  057%=      5-min Rain = 0
KBR1 181428Z 21007KT 16/07 A2975 RMK A01 T01560071  RH  057%=      5-min Rain = 0
KBR1 181429Z 20010KT 16/07 A2975 RMK A01 T01570072  RH  057%=      5-min Rain = 0
KBR1 181430Z 21009KT 16/07 A2975 RMK A01 T01570071  RH  057%=      5-min Rain = 0
KBR1 181431Z 21008KT 16/07 A2975 RMK A01 T01570072  RH  057%=      5-min Rain = 0
KBR1 181432Z 21008KT 16/07 A2975 RMK A01 T01580072  RH  056%=      5-min Rain = 0
KBR1 181433Z 20009KT 16/07 A2975 RMK A01 T01590072  RH  056%=      5-min Rain = 0
KBR1 181434Z 20010KT 16/07 A2975 RMK A01 T01600073  RH  056%=      5-min Rain = 0
KBR1 181435Z 20010KT 16/07 A2975 RMK A01 T01620073  RH  056%=      5-min Rain = 0
KBR1 181436Z 21009KT 16/07 A2975 RMK A01 T01620073  RH  056%=      5-min Rain = 0
KBR1 181437Z 21009KT 16/07 A2975 RMK A01 T01620073  RH  055%=      5-min Rain = 0
KBR1 181438Z 20008KT 16/07 A2975 RMK A01 T01630073  RH  055%=      5-min Rain = 0
KBR1 181439Z 20010KT 16/07 A2975 RMK A01 T01630072  RH  055%=      5-min Rain = 0
KBR1 181440Z 20009KT 16/07 A2975 RMK A01 T01630072  RH  055%=      5-min Rain = 0
KBR1 181441Z 19009KT 16/07 A2975 RMK A01 T01630073  RH  055%=      5-min Rain = 0
KBR1 181442Z 20011KT 16/07 A2975 RMK A01 T01640073  RH  055%=      5-min Rain = 0
KBR1 181443Z 19009KT 17/07 A2975 RMK A01 T01650073  RH  054%=      5-min Rain = 0
KBR1 181444Z 20007KT 17/07 A2975 RMK A01 T01660074  RH  055%=      5-min Rain = 0
KBR1 181445Z 20007KT 17/08 A2975 RMK A01 T01670076  RH  055%=      5-min Rain = 0
KBR1 181446Z 20008KT 17/08 A2975 RMK A01 T01690076  RH  054%=      5-min Rain = 0
KBR1 181447Z 20009KT 17/08 A2975 RMK A01 T01700076  RH  054%=      5-min Rain = 0
KBR1 181448Z 21009KT 17/08 A2975 RMK A01 T01720077  RH  053%=      5-min Rain = 0
KBR1 181449Z 20009KT 18/08 A2975 RMK A01 T01750077  RH  053%=      5-min Rain = 0
KBR1 181450Z 20011KT 18/08 A2975 RMK A01 T01770076  RH  051%=      5-min Rain = 0
KBR1 181451Z 20012KT 18/07 A2975 RMK A01 T01770074  RH  051%=      5-min Rain = 0
KBR1 181452Z 21011KT 18/07 A2975 RMK A01 T01770074  RH  051%=      5-min Rain = 0
KBR1 181453Z 21011KT 18/07 A2975 RMK A01 T01770074  RH  051%=      5-min Rain = 0
KBR1 181454Z 21010KT 18/07 A2975 RMK A01 T01780074  RH  051%=      5-min Rain = 0
KBR1 181455Z 20010KT 18/08 A2975 RMK A01 T01800076  RH  051%=      5-min Rain = 0
KBR1 181456Z 20011KT 18/08 A2975 RMK A01 T01810075  RH  050%=      5-min Rain = 0
KBR1 181457Z 20011KT 18/08 A2975 RMK A01 T01810075  RH  050%=      5-min Rain = 0
KBR1 181458Z 20011KT 18/07 A2975 RMK A01 T01810074  RH  050%=      5-min Rain = 0
KBR1 181459Z 20011KT 18/08 A2975 RMK A01 T01810075  RH  050%=      5-min Rain = 0
KBR1 181500Z 20010KT 18/08 A2975 RMK A01 T01830077  RH  050%=      5-min Rain = 0
KBR1 181501Z 20011KT 18/08 A2975 RMK A01 T01840075  RH  049%=      5-min Rain = 0
KBR1 181502Z 20012KT 18/08 A2975 RMK A01 T01840075  RH  049%=      5-min Rain = 0
KBR1 181503Z 20012KT 18/08 A2975 RMK A01 T01840075  RH  049%=      5-min Rain = 0
KBR1 181504Z 21012KT 19/08 A2975 RMK A01 T01850075  RH  049%=      5-min Rain = 0
KBR1 181505Z 20012KT 19/08 A2975 RMK A01 T01850076  RH  049%=      5-min Rain = 0
KBR1 181506Z 20012KT 19/08 A2975 RMK A01 T01870076  RH  048%=      5-min Rain = 0
KBR1 181507Z 20012KT 19/08 A2975 RMK A01 T01870075  RH  048%=      5-min Rain = 0
KBR1 181508Z 20011KT 19/08 A2974 RMK A01 T01870076  RH  048%=      5-min Rain = 0
KBR1 181509Z 21011KT 19/08 A2974 RMK A01 T01880077  RH  048%=      5-min Rain = 0
KBR1 181510Z 21012KT 19/08 A2974 RMK A01 T01900077  RH  048%=      5-min Rain = 0
KBR1 181511Z 20012KT 19/08 A2974 RMK A01 T01920077  RH  047%=      5-min Rain = 0
KBR1 181512Z 20011KT 19/08 A2974 RMK A01 T01930077  RH  047%=      5-min Rain = 0
KBR1 181513Z 21013KT 19/08 A2974 RMK A01 T01940077  RH  047%=      5-min Rain = 0
KBR1 181514Z 21014KT 19/08 A2974 RMK A01 T01940077  RH  047%=      5-min Rain = 0
KBR1 181515Z 20012KT 20/08 A2974 RMK A01 T01950077  RH  047%=      5-min Rain = 0
KBR1 181516Z 21014KT 20/08 A2974 RMK A01 T01960077  RH  046%=      5-min Rain = 0
KBR1 181517Z 20012KT 20/08 A2974 RMK A01 T01950077  RH  046%=      5-min Rain = 0
KBR1 181518Z 20013KT 20/08 A2974 RMK A01 T01960078  RH  046%=      5-min Rain = 0
KBR1 181519Z 21014KT 20/08 A2974 RMK A01 T01970078  RH  046%=      5-min Rain = 0
KBR1 181520Z 21014KT 20/08 A2974 RMK A01 T01980078  RH  046%=      5-min Rain = 0
KBR1 181521Z 22012KT 20/08 A2974 RMK A01 T01980077  RH  046%=      5-min Rain = 0
KBR1 181522Z 20013KT 20/08 A2974 RMK A01 T01980079  RH  046%=      5-min Rain = 0
KBR1 181523Z 21015KT 20/08 A2974 RMK A01 T01990078  RH  046%=      5-min Rain = 0
KBR1 181524Z 20013KT 20/08 A2974 RMK A01 T02000079  RH  045%=      5-min Rain = 0
KBR1 181525Z 21012KT 20/08 A2974 RMK A01 T02010079  RH  045%=      5-min Rain = 0
KBR1 181526Z 21013KT 20/08 A2974 RMK A01 T02020079  RH  045%=      5-min Rain = 0
KBR1 181527Z 20013KT 20/08 A2974 RMK A01 T02020079  RH  045%=      5-min Rain = 0
KBR1 181528Z 20014KT 20/08 A2974 RMK A01 T02020079  RH  045%=      5-min Rain = 0
KBR1 181529Z 20013KT 20/08 A2974 RMK A01 T02030079  RH  045%=      5-min Rain = 0
KBR1 181530Z 20015KT 20/08 A2974 RMK A01 T02030079  RH  045%=      5-min Rain = 0
KBR1 181531Z 20015KT 20/08 A2974 RMK A01 T02030079  RH  045%=      5-min Rain = 0
KBR1 181532Z 20015KT 20/08 A2974 RMK A01 T02030079  RH  045%=      5-min Rain = 0
KBR1 181533Z 21014KT 20/08 A2974 RMK A01 T02030079  RH  045%=      5-min Rain = 0
KBR1 181534Z 21014KT 20/08 A2974 RMK A01 T02040080  RH  045%=      5-min Rain = 0
KBR1 181535Z 21014KT 21/08 A2974 RMK A01 T02050080  RH  044%=      5-min Rain = 0
KBR1 181536Z 21013KT 21/08 A2974 RMK A01 T02050080  RH  045%=      5-min Rain = 0
KBR1 181537Z 21014KT 21/08 A2974 RMK A01 T02060080  RH  044%=      5-min Rain = 0
KBR1 181538Z 21012G17KT 21/08 A2974 RMK A01 T02070081  RH  044%=      5-min Rain = 0
KBR1 181539Z 21014KT 21/08 A2974 RMK A01 T02080082  RH  044%=      5-min Rain = 0
KBR1 181540Z 20013KT 21/08 A2974 RMK A01 T02090081  RH  044%=      5-min Rain = 0
KBR1 181541Z 20011KT 21/08 A2974 RMK A01 T02090081  RH  044%=      5-min Rain = 0
KBR1 181542Z 21012KT 21/08 A2974 RMK A01 T02100083  RH  044%=      5-min Rain = 0
KBR1 181543Z 21014KT 21/08 A2974 RMK A01 T02120082  RH  043%=      5-min Rain = 0
KBR1 181544Z 21012KT 21/08 A2974 RMK A01 T02120081  RH  043%=      5-min Rain = 0
KBR1 181545Z 21013KT 21/08 A2974 RMK A01 T02130083  RH  043%=      5-min Rain = 0
KBR1 181546Z 22014KT 21/08 A2974 RMK A01 T02140082  RH  042%=      5-min Rain = 0
KBR1 181547Z 21016KT 22/08 A2974 RMK A01 T02150082  RH  042%=      5-min Rain = 0
KBR1 181548Z 22016KT 22/08 A2973 RMK A01 T02150082  RH  042%=      5-min Rain = 0
KBR1 181549Z 22014KT 22/08 A2974 RMK A01 T02150082  RH  042%=      5-min Rain = 0
KBR1 181550Z 22013KT 22/08 A2974 RMK A01 T02150082  RH  042%=      5-min Rain = 0
KBR1 181551Z 23012KT 22/08 A2974 RMK A01 T02150082  RH  042%=      5-min Rain = 0
KBR1 181552Z 22013KT 22/08 A2974 RMK A01 T02160083  RH  042%=      5-min Rain = 0
KBR1 181553Z 21015KT 22/08 A2973 RMK A01 T02180083  RH  042%=      5-min Rain = 0
KBR1 181554Z 22013KT 22/08 A2973 RMK A01 T02180084  RH  042%=      5-min Rain = 0
KBR1 181555Z 22016KT 22/08 A2973 RMK A01 T02190084  RH  042%=      5-min Rain = 0
KBR1 181556Z 23016KT 22/08 A2973 RMK A01 T02200084  RH  042%=      5-min Rain = 0
KBR1 181557Z 23014KT 22/08 A2973 RMK A01 T02190084  RH  042%=      5-min Rain = 0
KBR1 181558Z 23014KT 22/08 A2973 RMK A01 T02190084  RH  042%=      5-min Rain = 0
KBR1 181559Z 23015KT 22/08 A2973 RMK A01 T02190084  RH  042%=      5-min Rain = 0
KBR1 181600Z 22015G20KT 22/09 A2973 RMK A01 T02190085  RH  042%=      5-min Rain = 0
KBR1 181601Z 22016KT 22/09 A2973 RMK A01 T02210085  RH  042%=      5-min Rain = 0
KBR1 181602Z 22016KT 22/09 A2973 RMK A01 T02210086  RH  042%=      5-min Rain = 0
KBR1 181603Z 22017KT 22/09 A2973 RMK A01 T02220086  RH  042%=      5-min Rain = 0
KBR1 181604Z 23016KT 22/09 A2973 RMK A01 T02210085  RH  042%=      5-min Rain = 0
KBR1 181605Z 22014KT 22/09 A2973 RMK A01 T02210087  RH  042%=      5-min Rain = 0
KBR1 181606Z 21015KT 22/09 A2973 RMK A01 T02240087  RH  042%=      5-min Rain = 0
KBR1 181607Z 22016KT 22/09 A2973 RMK A01 T02240087  RH  041%=      5-min Rain = 0
KBR1 181608Z 23017KT 22/09 A2973 RMK A01 T02230086  RH  041%=      5-min Rain = 0
KBR1 181609Z 22017KT 22/09 A2972 RMK A01 T02230086  RH  042%=      5-min Rain = 0
KBR1 181610Z 23015KT 22/09 A2973 RMK A01 T02230087  RH  042%=      5-min Rain = 0
KBR1 181611Z 23017KT 22/09 A2973 RMK A01 T02240087  RH  041%=      5-min Rain = 0
KBR1 181612Z 23016KT 22/09 A2973 RMK A01 T02240087  RH  042%=      5-min Rain = 0
KBR1 181613Z 24017KT 22/09 A2973 RMK A01 T02240086  RH  041%=      5-min Rain = 0
KBR1 181614Z 23016KT 22/09 A2972 RMK A01 T02240087  RH  042%=      5-min Rain = 0
KBR1 181615Z 22013KT 23/09 A2973 RMK A01 T02250088  RH  042%=      5-min Rain = 0
KBR1 181616Z 22014KT 23/09 A2972 RMK A01 T02260089  RH  041%=      5-min Rain = 0
KBR1 181617Z 23017KT 23/09 A2973 RMK A01 T02280089  RH  041%=      5-min Rain = 0
KBR1 181618Z 23019KT 23/09 A2973 RMK A01 T02260086  RH  041%=      5-min Rain = 0
KBR1 181619Z 23015KT 22/09 A2973 RMK A01 T02240086  RH  041%=      5-min Rain = 0
KBR1 181620Z 23015KT 22/09 A2972 RMK A01 T02240088  RH  042%=      5-min Rain = 0
KBR1 181621Z 22020KT 23/09 A2972 RMK A01 T02250087  RH  041%=      5-min Rain = 0
KBR1 181622Z 22020KT 22/09 A2972 RMK A01 T02240087  RH  041%=      5-min Rain = 0
KBR1 181623Z 22017KT 22/09 A2973 RMK A01 T02230087  RH  042%=      5-min Rain = 0
KBR1 181624Z 23016KT 22/09 A2972 RMK A01 T02240088  RH  042%=      5-min Rain = 0
KBR1 181625Z 23018KT 23/09 A2972 RMK A01 T02250088  RH  042%=      5-min Rain = 0
KBR1 181626Z 22017KT 23/09 A2972 RMK A01 T02250088  RH  042%=      5-min Rain = 0
KBR1 181627Z 22018KT 23/09 A2972 RMK A01 T02260088  RH  041%=      5-min Rain = 0
KBR1 181628Z 23017KT 23/09 A2972 RMK A01 T02270088  RH  041%=      5-min Rain = 0
KBR1 181629Z 23015KT 23/09 A2972 RMK A01 T02270088  RH  041%=      5-min Rain = 0
KBR1 181630Z 21012KT 23/09 A2972 RMK A01 T02270091  RH  042%=      5-min Rain = 0
KBR1 181631Z 21015KT 23/09 A2972 RMK A01 T02320092  RH  041%=      5-min Rain = 0
KBR1 181632Z 23018KT 23/09 A2972 RMK A01 T02320089  RH  040%=      5-min Rain = 0
KBR1 181633Z 23017KT 23/09 A2972 RMK A01 T02290086  RH  040%=      5-min Rain = 0
KBR1 181634Z 23016KT 23/09 A2972 RMK A01 T02250086  RH  041%=      5-min Rain = 0
KBR1 181635Z 23016KT 23/09 A2972 RMK A01 T02270088  RH  041%=      5-min Rain = 0
KBR1 181636Z 23016KT 23/09 A2972 RMK A01 T02280088  RH  041%=      5-min Rain = 0
KBR1 181637Z 23013G19KT 23/09 A2972 RMK A01 T02270088  RH  041%=      5-min Rain = 0
KBR1 181638Z 23017KT 23/09 A2972 RMK A01 T02290091  RH  041%=      5-min Rain = 0
KBR1 181639Z 23015KT 23/09 A2972 RMK A01 T02310089  RH  040%=      5-min Rain = 0
KBR1 181640Z 23015KT 23/09 A2972 RMK A01 T02310088  RH  040%=      5-min Rain = 0
KBR1 181641Z 22014KT 23/09 A2972 RMK A01 T02310091  RH  041%=      5-min Rain = 0
KBR1 181642Z 21016KT 23/09 A2972 RMK A01 T02330090  RH  040%=      5-min Rain = 0
KBR1 181643Z 21017KT 23/09 A2972 RMK A01 T02330090  RH  040%=      5-min Rain = 0
KBR1 181644Z 21016KT 23/09 A2972 RMK A01 T02340091  RH  040%=      5-min Rain = 0
KBR1 181645Z 21017KT 23/09 A2972 RMK A01 T02340089  RH  040%=      5-min Rain = 0
KBR1 181646Z 22015KT 23/09 A2972 RMK A01 T02330090  RH  040%=      5-min Rain = 0
KBR1 181647Z 23016KT 23/09 A2972 RMK A01 T02320089  RH  040%=      5-min Rain = 0
KBR1 181648Z 22016KT 23/09 A2972 RMK A01 T02330089  RH  040%=      5-min Rain = 0
KBR1 181649Z 22019KT 24/09 A2972 RMK A01 T02350090  RH  039%=      5-min Rain = 0
KBR1 181650Z 23016KT 24/09 A2972 RMK A01 T02370087  RH  038%=      5-min Rain = 0
KBR1 181651Z 23015KT 24/09 A2972 RMK A01 T02370088  RH  039%=      5-min Rain = 0
KBR1 181652Z 22015G20KT 24/09 A2972 RMK A01 T02350086  RH  038%=      5-min Rain = 0
KBR1 181653Z 22017KT 23/09 A2972 RMK A01 T02340086  RH  039%=      5-min Rain = 0
KBR1 181654Z 22016KT 24/09 A2972 RMK A01 T02350087  RH  039%=      5-min Rain = 0
KBR1 181655Z 22013KT 24/09 A2972 RMK A01 T02350088  RH  039%=      5-min Rain = 0
KBR1 181656Z 22015KT 24/09 A2972 RMK A01 T02370088  RH  038%=      5-min Rain = 0
KBR1 181657Z 22012KT 24/09 A2972 RMK A01 T02370088  RH  039%=      5-min Rain = 0
KBR1 181658Z 21016KT 24/09 A2972 RMK A01 T02400090  RH  039%=      5-min Rain = 0
KBR1 181659Z 22016KT 24/09 A2972 RMK A01 T02390087  RH  038%=      5-min Rain = 0
KBR1 181700Z 22014KT 24/09 A2972 RMK A01 T02370089  RH  039%=      5-min Rain = 0
KBR1 181701Z 23014KT 24/09 A2972 RMK A01 T02390089  RH  038%=      5-min Rain = 0
KBR1 181702Z 22014KT 24/09 A2972 RMK A01 T02400088  RH  038%=      5-min Rain = 0
KBR1 181703Z 22015KT 24/09 A2972 RMK A01 T02390088  RH  038%=      5-min Rain = 0
KBR1 181704Z 23019KT 24/09 A2971 RMK A01 T02400086  RH  038%=      5-min Rain = 0
KBR1 181705Z 22017KT 24/08 A2972 RMK A01 T02380084  RH  037%=      5-min Rain = 0
KBR1 181706Z 23015KT 24/09 A2972 RMK A01 T02370085  RH  038%=      5-min Rain = 0
KBR1 181707Z 23017KT 24/09 A2972 RMK A01 T02380086  RH  038%=      5-min Rain = 0
KBR1 181708Z 24016KT 24/09 A2972 RMK A01 T02390085  RH  037%=      5-min Rain = 0
KBR1 181709Z 24015KT 24/09 A2972 RMK A01 T02380086  RH  038%=      5-min Rain = 0
KBR1 181710Z 24017KT 24/09 A2972 RMK A01 T02380086  RH  038%=      5-min Rain = 0
KBR1 181711Z 23017KT 24/09 A2972 RMK A01 T02400086  RH  037%=      5-min Rain = 0
KBR1 181712Z 23017KT 24/08 A2972 RMK A01 T02400083  RH  037%=      5-min Rain = 0
KBR1 181713Z 23016KT 24/08 A2972 RMK A01 T02380084  RH  037%=      5-min Rain = 0
KBR1 181714Z 23015G21KT 24/09 A2972 RMK A01 T02380086  RH  038%=      5-min Rain = 0
KBR1 181715Z 23019KT 24/09 A2971 RMK A01 T02390085  RH  037%=      5-min Rain = 0
KBR1 181716Z 23017KT 24/08 A2972 RMK A01 T02400083  RH  037%=      5-min Rain = 0
KBR1 181717Z 22017KT 24/08 A2971 RMK A01 T02390083  RH  037%=      5-min Rain = 0
KBR1 181718Z 23017KT 24/09 A2972 RMK A01 T02400085  RH  037%=      5-min Rain = 0
KBR1 181719Z 23015KT 24/09 A2971 RMK A01 T02410086  RH  037%=      5-min Rain = 0
KBR1 181720Z 23018KT 24/09 A2971 RMK A01 T02430086  RH  037%=      5-min Rain = 0
KBR1 181721Z 24017KT 24/08 A2971 RMK A01 T02420083  RH  036%=      5-min Rain = 0
KBR1 181722Z 23017KT 24/08 A2971 RMK A01 T02400082  RH  036%=      5-min Rain = 0
KBR1 181723Z 24015KT 24/08 A2971 RMK A01 T02400080  RH  036%=      5-min Rain = 0
KBR1 181724Z 24014KT 24/08 A2971 RMK A01 T02410082  RH  036%=      5-min Rain = 0
KBR1 181725Z 24018G23KT 24/08 A2971 RMK A01 T02420083  RH  036%=      5-min Rain = 0
KBR1 181726Z 23016KT 24/08 A2971 RMK A01 T02410082  RH  036%=      5-min Rain = 0
KBR1 181727Z 23013KT 24/08 A2971 RMK A01 T02410084  RH  037%=      5-min Rain = 0
KBR1 181728Z 24014KT 24/09 A2971 RMK A01 T02420085  RH  037%=      5-min Rain = 0
KBR1 181729Z 22013KT 24/09 A2971 RMK A01 T02440085  RH  036%=      5-min Rain = 0
KBR1 181730Z 22015KT 25/09 A2971 RMK A01 T02470087  RH  036%=      5-min Rain = 0
KBR1 181731Z 23016KT 25/08 A2971 RMK A01 T02490084  RH  035%=      5-min Rain = 0
KBR1 181732Z 22016KT 25/08 A2971 RMK A01 T02470084  RH  035%=      5-min Rain = 0
KBR1 181733Z 22014KT 25/09 A2971 RMK A01 T02480086  RH  036%=      5-min Rain = 0
KBR1 181734Z 23015KT 25/09 A2971 RMK A01 T02510085  RH  035%=      5-min Rain = 0
KBR1 181735Z 22013KT 25/08 A2971 RMK A01 T02490084  RH  035%=      5-min Rain = 0
KBR1 181736Z 23016G23KT 25/08 A2971 RMK A01 T02480083  RH  035%=      5-min Rain = 0
KBR1 181737Z 24014KT 25/08 A2971 RMK A01 T02490081  RH  034%=      5-min Rain = 0
KBR1 181738Z 24015KT 25/08 A2971 RMK A01 T02480081  RH  034%=      5-min Rain = 0
KBR1 181739Z 24016KT 25/08 A2971 RMK A01 T02470081  RH  035%=      5-min Rain = 0
KBR1 181740Z 23017KT 25/08 A2971 RMK A01 T02500080  RH  034%=      5-min Rain = 0
KBR1 181741Z 23017KT 25/08 A297 RMK A01 T02520080  RH  033%=      5-min Rain = 0
KBR1 181742Z 24015G20KT 25/08 A297 RMK A01 T02530076  RH  032%=      5-min Rain = 0
KBR1 181743Z 23016KT 26/08 A297 RMK A01 T02550079  RH  033%=      5-min Rain = 0
KBR1 181744Z 23017KT 26/08 A297 RMK A01 T02570079  RH  032%=      5-min Rain = 0
KBR1 181745Z 23019KT 26/08 A297 RMK A01 T02550079  RH  032%=      5-min Rain = 0
KBR1 181746Z 23019KT 25/08 A297 RMK A01 T02540077  RH  032%=      5-min Rain = 0
KBR1 181747Z 25017KT 25/08 A297 RMK A01 T02520075  RH  032%=      5-min Rain = 0
KBR1 181748Z 23016G22KT 25/08 A297 RMK A01 T02500079  RH  033%=      5-min Rain = 0
KBR1 181749Z 23014G19KT 25/08 A297 RMK A01 T02530084  RH  034%=      5-min Rain = 0
KBR1 181750Z 23014G19KT 26/08 A297 RMK A01 T02550081  RH  033%=      5-min Rain = 0
KBR1 181751Z 23016KT 25/08 A297 RMK A01 T02530082  RH  034%=      5-min Rain = 0
KBR1 181752Z 23016KT 26/08 A297 RMK A01 T02560080  RH  033%=      5-min Rain = 0
KBR1 181753Z 23017KT 26/07 A297 RMK A01 T02580074  RH  031%=      5-min Rain = 0
KBR1 181754Z 23017KT 26/08 A297 RMK A01 T02590076  RH  031%=      5-min Rain = 0
KBR1 181755Z 24019KT 26/07 A297 RMK A01 T02590069  RH  030%=      5-min Rain = 0
KBR1 181756Z 24014KT 25/06 A297 RMK A01 T02540062  RH  029%=      5-min Rain = 0
KBR1 181757Z 24020G25KT 25/07 A297 RMK A01 T02530071  RH  031%=      5-min Rain = 0
KBR1 181758Z 24020KT 25/07 A297 RMK A01 T02540072  RH  031%=      5-min Rain = 0
KBR1 181759Z 23020KT 25/07 A297 RMK A01 T02540071  RH  031%=      5-min Rain = 0
KBR1 181800Z 21019KT 25/07 A2969 RMK A01 T02540072  RH  031%=      5-min Rain = 0
KBR1 181801Z 22016KT 25/07 A297 RMK A01 T02540072  RH  031%=      5-min Rain = 0
KBR1 181802Z 24012KT 26/08 A297 RMK A01 T02560075  RH  032%=      5-min Rain = 0
KBR1 181803Z 24013KT 26/08 A2969 RMK A01 T02590076  RH  031%=      5-min Rain = 0
KBR1 181804Z 23021G29KT 26/07 A2969 RMK A01 T02590074  RH  031%=      5-min Rain = 0
KBR1 181805Z 24019KT 26/07 A297 RMK A01 T02610073  RH  030%=      5-min Rain = 0
KBR1 181806Z 23016KT 26/07 A2969 RMK A01 T02580074  RH  031%=      5-min Rain = 0
KBR1 181807Z 23017KT 26/08 A2969 RMK A01 T02580075  RH  031%=      5-min Rain = 0
KBR1 181808Z 23019KT 26/07 A2969 RMK A01 T02590072  RH  030%=      5-min Rain = 0
KBR1 181809Z 23018KT 26/07 A2969 RMK A01 T02590070  RH  030%=      5-min Rain = 0
KBR1 181810Z 23018KT 26/07 A2969 RMK A01 T02580072  RH  031%=      5-min Rain = 0
KBR1 181811Z 23018KT 26/07 A2969 RMK A01 T02580072  RH  030%=      5-min Rain = 0
KBR1 181812Z 24019KT 26/07 A2969 RMK A01 T02590071  RH  030%=      5-min Rain = 0
KBR1 181813Z 24018KT 26/07 A2969 RMK A01 T02590071  RH  030%=      5-min Rain = 0
KBR1 181814Z 24017KT 26/07 A2969 RMK A01 T02580071  RH  030%=      5-min Rain = 0
KBR1 181815Z 24017KT 26/07 A2969 RMK A01 T02570074  RH  031%=      5-min Rain = 0
KBR1 181816Z 24016KT 26/08 A2969 RMK A01 T02570075  RH  031%=      5-min Rain = 0
KBR1 181817Z 22014KT 26/07 A2969 RMK A01 T02580074  RH  031%=      5-min Rain = 0
KBR1 181818Z 22017KT 26/07 A2968 RMK A01 T02600074  RH  031%=      5-min Rain = 0
KBR1 181819Z 24014KT 26/07 A2969 RMK A01 T02600072  RH  030%=      5-min Rain = 0
KBR1 181820Z 24016G21KT 26/08 A2968 RMK A01 T02620075  RH  031%=      5-min Rain = 0
KBR1 181821Z 22016G24KT 26/07 A2968 RMK A01 T02640073  RH  030%=      5-min Rain = 0
KBR1 181822Z 22016KT 27/07 A2968 RMK A01 T02670073  RH  029%=      5-min Rain = 0
KBR1 181823Z 22016KT 27/07 A2968 RMK A01 T02650071  RH  029%=      5-min Rain = 0
KBR1 181824Z 23018G23KT 26/07 A2968 RMK A01 T02630069  RH  029%=      5-min Rain = 0
KBR1 181825Z 24016KT 26/06 A2968 RMK A01 T02630064  RH  028%=      5-min Rain = 0
KBR1 181826Z 23014KT 26/07 A2968 RMK A01 T02610066  RH  029%=      5-min Rain = 0
KBR1 181827Z 23013KT 26/07 A2968 RMK A01 T02640073  RH  030%=      5-min Rain = 0
KBR1 181828Z 23013KT 27/07 A2968 RMK A01 T02670070  RH  028%=      5-min Rain = 0
KBR1 181829Z 24016KT 27/07 A2968 RMK A01 T02650072  RH  029%=      5-min Rain = 0
KBR1 181830Z 23017KT 27/07 A2968 RMK A01 T02660071  RH  029%=      5-min Rain = 0
KBR1 181831Z 24017KT 27/07 A2968 RMK A01 T02650068  RH  028%=      5-min Rain = 0
KBR1 181832Z 24015KT 26/07 A2968 RMK A01 T02640066  RH  028%=      5-min Rain = 0
KBR1 181833Z 23020KT 26/07 A2968 RMK A01 T02630067  RH  029%=      5-min Rain = 0
KBR1 181834Z 22019KT 27/06 A2967 RMK A01 T02650064  RH  028%=      5-min Rain = 0
KBR1 181835Z 22022KT 27/07 A2967 RMK A01 T02650065  RH  028%=      5-min Rain = 0
KBR1 181836Z 23014KT 27/06 A2967 RMK A01 T02650062  RH  027%=      5-min Rain = 0
KBR1 181837Z 24012KT 26/07 A2967 RMK A01 T02640065  RH  028%=      5-min Rain = 0
KBR1 181838Z 23015KT 27/06 A2967 RMK A01 T02650063  RH  028%=      5-min Rain = 0
KBR1 181839Z 22016G21KT 27/05 A2967 RMK A01 T02650053  RH  026%=      5-min Rain = 0
KBR1 181840Z 21017G29KT 27/06 A2967 RMK A01 T02700056  RH  026%=      5-min Rain = 0
KBR1 181841Z 22025KT 28/05 A2966 RMK A01 T02760046  RH  023%=      5-min Rain = 0
KBR1 181842Z 22022KT 27/04 A2967 RMK A01 T02740041  RH  023%=      5-min Rain = 0
KBR1 181843Z 23021G26KT 27/04 A2967 RMK A01 T02730041  RH  023%=      5-min Rain = 0
KBR1 181844Z 24021G27KT 27/04 A2967 RMK A01 T02730039  RH  022%=      5-min Rain = 0
KBR1 181845Z 25023G30KT 27/03 A2967 RMK A01 T02730034  RH  021%=      5-min Rain = 0
KBR1 181846Z 26024G29KT 27/03 A2967 RMK A01 T02730031  RH  021%=      5-min Rain = 0
KBR1 181847Z 26022G28KT 28/04 A2967 RMK A01 T02750035  RH  021%=      5-min Rain = 0
KBR1 181848Z 24019KT 27/04 A2967 RMK A01 T02740039  RH  022%=      5-min Rain = 0
KBR1 181849Z 25019KT 28/04 A2967 RMK A01 T02750038  RH  022%=      5-min Rain = 0
KBR1 181850Z 24022KT 28/04 A2967 RMK A01 T02750037  RH  022%=      5-min Rain = 0
KBR1 181851Z 25018G23KT 28/04 A2966 RMK A01 T02750035  RH  021%=      5-min Rain = 0
KBR1 181852Z 25022G29KT 28/03 A2966 RMK A01 T02750034  RH  021%=      5-min Rain = 0
KBR1 181853Z 24023KT 28/03 A2966 RMK A01 T02750033  RH  021%=      5-min Rain = 0
KBR1 181854Z 23020KT 27/03 A2966 RMK A01 T02730031  RH  021%=      5-min Rain = 0
KBR1 181855Z 24023KT 28/03 A2966 RMK A01 T02750034  RH  021%=      5-min Rain = 0
KBR1 181856Z 25022KT 28/03 A2966 RMK A01 T02760033  RH  021%=      5-min Rain = 0
KBR1 181857Z 24020KT 27/03 A2966 RMK A01 T02740033  RH  021%=      5-min Rain = 0
KBR1 181858Z 24023G29KT 27/03 A2966 RMK A01 T02740033  RH  021%=      5-min Rain = 0
KBR1 181859Z 25022KT 28/03 A2966 RMK A01 T02770031  RH  021%=      5-min Rain = 0
KBR1 181900Z 25024G29KT 28/03 A2966 RMK A01 T02770029  RH  020%=      5-min Rain = 0
KBR1 181901Z 24025KT 28/03 A2966 RMK A01 T02770026  RH  020%=      5-min Rain = 0
KBR1 181902Z 24025KT 28/02 A2966 RMK A01 T02750020  RH  019%=      5-min Rain = 0
KBR1 181903Z 24022G27KT 27/02 A2966 RMK A01 T02720024  RH  020%=      5-min Rain = 0
KBR1 181904Z 25022KT 27/03 A2966 RMK A01 T02710028  RH  021%=      5-min Rain = 0
KBR1 181905Z 26020G25KT 27/03 A2966 RMK A01 T02710031  RH  021%=      5-min Rain = 0
KBR1 181906Z 24022KT 27/03 A2966 RMK A01 T02710034  RH  022%=      5-min Rain = 0
KBR1 181907Z 25022KT 27/03 A2966 RMK A01 T02740033  RH  021%=      5-min Rain = 0
KBR1 181908Z 25021KT 28/03 A2966 RMK A01 T02750030  RH  021%=      5-min Rain = 0
KBR1 181909Z 25018KT 27/03 A2966 RMK A01 T02730029  RH  021%=      5-min Rain = 0
KBR1 181910Z 24019G24KT 27/03 A2965 RMK A01 T02710031  RH  021%=      5-min Rain = 0
KBR1 181911Z 24021G26KT 27/04 A2965 RMK A01 T02730036  RH  022%=      5-min Rain = 0
KBR1 181912Z 24021KT 28/04 A2965 RMK A01 T02750037  RH  022%=      5-min Rain = 0
KBR1 181913Z 24018G23KT 28/04 A2965 RMK A01 T02760040  RH  022%=      5-min Rain = 0
KBR1 181914Z 23017KT 27/04 A2965 RMK A01 T02740040  RH  022%=      5-min Rain = 0
KBR1 181915Z 23021KT 27/04 A2965 RMK A01 T02720041  RH  023%=      5-min Rain = 0
KBR1 181916Z 23021G27KT 27/04 A2965 RMK A01 T02740041  RH  022%=      5-min Rain = 0
KBR1 181917Z 24024KT 28/04 A2965 RMK A01 T02760041  RH  022%=      5-min Rain = 0
KBR1 181918Z 24020G26KT 28/04 A2965 RMK A01 T02760040  RH  022%=      5-min Rain = 0
KBR1 181919Z 24021KT 27/04 A2965 RMK A01 T02740043  RH  023%=      5-min Rain = 0
KBR1 181920Z 23017KT 28/04 A2965 RMK A01 T02760044  RH  023%=      5-min Rain = 0
KBR1 181921Z 23025G31KT 28/04 A2965 RMK A01 T02790042  RH  022%=      5-min Rain = 0
KBR1 181922Z 23021KT 28/04 A2965 RMK A01 T02800038  RH  021%=      5-min Rain = 0
KBR1 181923Z 23022KT 28/04 A2965 RMK A01 T02780037  RH  021%=      5-min Rain = 0
KBR1 181924Z 23020KT 28/04 A2965 RMK A01 T02760038  RH  022%=      5-min Rain = 0
KBR1 181925Z 22021KT 28/04 A2965 RMK A01 T02760040  RH  022%=      5-min Rain = 0
KBR1 181926Z 22022G27KT 28/04 A2965 RMK A01 T02760039  RH  022%=      5-min Rain = 0
KBR1 181927Z 22024KT 28/04 A2964 RMK A01 T02770039  RH  022%=      5-min Rain = 0
KBR1 181928Z 23023KT 27/03 A2964 RMK A01 T02740034  RH  021%=      5-min Rain = 0
KBR1 181929Z 24025G31KT 27/04 A2965 RMK A01 T02720035  RH  022%=      5-min Rain = 0
KBR1 181930Z 25024G31KT 27/04 A2965 RMK A01 T02720038  RH  022%=      5-min Rain = 0
KBR1 181931Z 25021G26KT 27/04 A2964 RMK A01 T02720036  RH  022%=      5-min Rain = 0
KBR1 181932Z 24022G27KT 27/04 A2964 RMK A01 T02720038  RH  022%=      5-min Rain = 0
KBR1 181933Z 23021KT 27/04 A2964 RMK A01 T02720038  RH  022%=      5-min Rain = 0
KBR1 181934Z 23022KT 27/04 A2964 RMK A01 T02730038  RH  022%=      5-min Rain = 0
KBR1 181935Z 24019KT 27/04 A2964 RMK A01 T02730040  RH  022%=      5-min Rain = 0
KBR1 181936Z 25019KT 28/04 A2964 RMK A01 T02760041  RH  022%=      5-min Rain = 0
KBR1 181937Z 26019KT 28/04 A2964 RMK A01 T02750040  RH  022%=      5-min Rain = 0
KBR1 181938Z 25019KT 27/04 A2964 RMK A01 T02730042  RH  023%=      5-min Rain = 0
KBR1 181939Z 24021KT 27/04 A2964 RMK A01 T02740044  RH  023%=      5-min Rain = 0
KBR1 181940Z 23019KT 28/04 A2964 RMK A01 T02770041  RH  022%=      5-min Rain = 0
KBR1 181941Z 23020KT 28/04 A2964 RMK A01 T02770040  RH  022%=      5-min Rain = 0
KBR1 181942Z 23017KT 28/04 A2964 RMK A01 T02770040  RH  022%=      5-min Rain = 0
KBR1 181943Z 23015KT 28/03 A2964 RMK A01 T02780034  RH  021%=      5-min Rain = 0
KBR1 181944Z 24018G29KT 28/04 A2964 RMK A01 T02770037  RH  021%=      5-min Rain = 0
KBR1 181945Z 23024KT 28/03 A2963 RMK A01 T02790026  RH  020%=      5-min Rain = 0
KBR1 181946Z 23024G29KT 28/02 A2964 RMK A01 T02800022  RH  019%=      5-min Rain = 0
KBR1 181947Z 24022KT 28/02 A2964 RMK A01 T02800016  RH  018%=      5-min Rain = 0
KBR1 181948Z 24020KT 28/02 A2964 RMK A01 T02780017  RH  018%=      5-min Rain = 0
KBR1 181949Z 25020KT 28/02 A2964 RMK A01 T02780019  RH  019%=      5-min Rain = 0
KBR1 181950Z 25024G29KT 28/02 A2964 RMK A01 T02770019  RH  019%=      5-min Rain = 0
KBR1 181951Z 24024KT 28/02 A2964 RMK A01 T02770017  RH  019%=      5-min Rain = 0
KBR1 181952Z 24018KT 28/02 A2964 RMK A01 T02770017  RH  019%=      5-min Rain = 0
KBR1 181953Z 23019KT 28/02 A2963 RMK A01 T02760020  RH  019%=      5-min Rain = 0
KBR1 181954Z 23022G28KT 28/02 A2963 RMK A01 T02770023  RH  019%=      5-min Rain = 0
KBR1 181955Z 24026G32KT 28/02 A2963 RMK A01 T02780021  RH  019%=      5-min Rain = 0
KBR1 181956Z 24025KT 28/02 A2963 RMK A01 T02770019  RH  019%=      5-min Rain = 0
KBR1 181957Z 24021KT 28/02 A2963 RMK A01 T02770022  RH  019%=      5-min Rain = 0
KBR1 181958Z 24024KT 28/02 A2963 RMK A01 T02790023  RH  019%=      5-min Rain = 0
KBR1 181959Z 24024KT 28/02 A2963 RMK A01 T02790021  RH  019%=      5-min Rain = 0
KBR1 182000Z 24022G27KT 28/02 A2963 RMK A01 T02770020  RH  019%=      5-min Rain = 0
KBR1 182001Z 24022KT 28/02 A2963 RMK A01 T02760022  RH  019%=      5-min Rain = 0
KBR1 182002Z 24022G27KT 28/03 A2963 RMK A01 T02760027  RH  020%=      5-min Rain = 0
KBR1 182003Z 25022G28KT 28/03 A2963 RMK A01 T02770029  RH  020%=      5-min Rain = 0
KBR1 182004Z 25023KT 28/03 A2963 RMK A01 T02770028  RH  020%=      5-min Rain = 0
KBR1 182005Z 25022KT 28/03 A2963 RMK A01 T02770029  RH  020%=      5-min Rain = 0
KBR1 182006Z 26020KT 28/03 A2963 RMK A01 T02760028  RH  020%=      5-min Rain = 0
KBR1 182007Z 26019KT 28/03 A2963 RMK A01 T02760030  RH  021%=      5-min Rain = 0
KBR1 182008Z 25019G24KT 28/03 A2963 RMK A01 T02770029  RH  020%=      5-min Rain = 0
KBR1 182009Z 24018G23KT 28/03 A2963 RMK A01 T02780025  RH  020%=      5-min Rain = 0
KBR1 182010Z 25020KT 28/03 A2963 RMK A01 T02790027  RH  020%=      5-min Rain = 0
KBR1 182011Z 25020G26KT 28/02 A2963 RMK A01 T02790024  RH  019%=      5-min Rain = 0
KBR1 182012Z 25023KT 28/03 A2963 RMK A01 T02800027  RH  020%=      5-min Rain = 0
KBR1 182013Z 25022G29KT 28/03 A2963 RMK A01 T02790029  RH  020%=      5-min Rain = 0
KBR1 182014Z 24023KT 28/03 A2963 RMK A01 T02800031  RH  020%=      5-min Rain = 0
KBR1 182015Z 23020KT 28/03 A2963 RMK A01 T02790031  RH  020%=      5-min Rain = 0
KBR1 182016Z 23022KT 28/03 A2963 RMK A01 T02770030  RH  020%=      5-min Rain = 0
KBR1 182017Z 23019G24KT 28/03 A2963 RMK A01 T02760032  RH  021%=      5-min Rain = 0
KBR1 182018Z 25016KT 28/03 A2963 RMK A01 T02770033  RH  021%=      5-min Rain = 0
KBR1 182019Z 25017KT 28/03 A2963 RMK A01 T02770033  RH  021%=      5-min Rain = 0
KBR1 182020Z 25019G26KT 28/03 A2963 RMK A01 T02760034  RH  021%=      5-min Rain = 0
KBR1 182021Z 25023KT 28/03 A2963 RMK A01 T02770031  RH  021%=      5-min Rain = 0
KBR1 182022Z 25020G26KT 28/03 A2963 RMK A01 T02760030  RH  020%=      5-min Rain = 0
KBR1 182023Z 25021KT 28/03 A2963 RMK A01 T02750030  RH  021%=      5-min Rain = 0
KBR1 182024Z 25017KT 28/03 A2962 RMK A01 T02760029  RH  020%=      5-min Rain = 0
KBR1 182025Z 26018KT 28/03 A2962 RMK A01 T02770027  RH  020%=      5-min Rain = 0
KBR1 182026Z 25018G23KT 28/03 A2962 RMK A01 T02780027  RH  020%=      5-min Rain = 0
KBR1 182027Z 25023KT 28/02 A2962 RMK A01 T02800023  RH  019%=      5-min Rain = 0
KBR1 182028Z 25024KT 28/02 A2962 RMK A01 T02790017  RH  018%=      5-min Rain = 0
KBR1 182029Z 24022G33KT 28/02 A2962 RMK A01 T02780023  RH  019%=      5-min Rain = 0
KBR1 182030Z 24019KT 28/03 A2962 RMK A01 T02780026  RH  020%=      5-min Rain = 0
KBR1 182031Z 24018KT 28/03 A2962 RMK A01 T02790027  RH  020%=      5-min Rain = 0
KBR1 182032Z 25024G29KT 28/02 A2962 RMK A01 T02790024  RH  019%=      5-min Rain = 0
KBR1 182033Z 25024KT 28/02 A2962 RMK A01 T02780019  RH  019%=      5-min Rain = 0
KBR1 182034Z 25021KT 28/02 A2962 RMK A01 T02760021  RH  019%=      5-min Rain = 0
KBR1 182035Z 25021KT 28/02 A2962 RMK A01 T02760023  RH  019%=      5-min Rain = 0
KBR1 182036Z 26021KT 28/02 A2962 RMK A01 T02770021  RH  019%=      5-min Rain = 0
KBR1 182037Z 26019G24KT 28/02 A2962 RMK A01 T02770021  RH  019%=      5-min Rain = 0
KBR1 182038Z 25019KT 28/02 A2962 RMK A01 T02770021  RH  019%=      5-min Rain = 0
KBR1 182039Z 24022KT 28/02 A2962 RMK A01 T02780020  RH  019%=      5-min Rain = 0
KBR1 182040Z 24022KT 28/02 A2962 RMK A01 T02790016  RH  018%=      5-min Rain = 0
KBR1 182041Z 24023KT 28/02 A2962 RMK A01 T02770019  RH  019%=      5-min Rain = 0
KBR1 182042Z 25019KT 28/02 A2962 RMK A01 T02780024  RH  019%=      5-min Rain = 0
KBR1 182043Z 26019KT 28/02 A2962 RMK A01 T02810024  RH  019%=      5-min Rain = 0
KBR1 182044Z 25019KT 28/02 A2962 RMK A01 T02780019  RH  019%=      5-min Rain = 0
KBR1 182045Z 25017KT 28/02 A2962 RMK A01 T02760020  RH  019%=      5-min Rain = 0
KBR1 182046Z 24020G26KT 28/02 A2962 RMK A01 T02780024  RH  019%=      5-min Rain = 0
KBR1 182047Z 25021G26KT 28/02 A2962 RMK A01 T02800023  RH  019%=      5-min Rain = 0
KBR1 182048Z 26021G27KT 28/02 A2962 RMK A01 T02810023  RH  019%=      5-min Rain = 0
KBR1 182049Z 26020KT 28/02 A2962 RMK A01 T02800022  RH  019%=      5-min Rain = 0
KBR1 182050Z 26018KT 28/03 A2962 RMK A01 T02780025  RH  020%=      5-min Rain = 0
KBR1 182051Z 25021KT 28/02 A2962 RMK A01 T02790024  RH  019%=      5-min Rain = 0
KBR1 182052Z 26020KT 28/02 A2962 RMK A01 T02780023  RH  019%=      5-min Rain = 0
KBR1 182053Z 25019KT 28/03 A2962 RMK A01 T02760026  RH  020%=      5-min Rain = 0
KBR1 182054Z 25020KT 28/03 A2962 RMK A01 T02780028  RH  020%=      5-min Rain = 0
KBR1 182055Z 25020G25KT 28/03 A2962 RMK A01 T02790028  RH  020%=      5-min Rain = 0
KBR1 182056Z 25017KT 28/03 A2962 RMK A01 T02770026  RH  020%=      5-min Rain = 0
KBR1 182057Z 25016KT 28/03 A2962 RMK A01 T02760027  RH  020%=      5-min Rain = 0
KBR1 182058Z 24019G24KT 28/03 A2962 RMK A01 T02760028  RH  020%=      5-min Rain = 0
KBR1 182059Z 24021KT 28/03 A2962 RMK A01 T02770025  RH  020%=      5-min Rain = 0
KBR1 182100Z 23020G25KT 28/03 A2962 RMK A01 T02770026  RH  020%=      5-min Rain = 0
KBR1 182101Z 23024G32KT 28/02 A2961 RMK A01 T02770023  RH  019%=      5-min Rain = 0
KBR1 182102Z 24019KT 28/03 A2962 RMK A01 T02780025  RH  019%=      5-min Rain = 0
KBR1 182103Z 25022G28KT 28/03 A2962 RMK A01 T02800026  RH  020%=      5-min Rain = 0
KBR1 182104Z 24025G31KT 28/02 A2962 RMK A01 T02800024  RH  019%=      5-min Rain = 0
KBR1 182105Z 24024KT 28/02 A2962 RMK A01 T02780023  RH  019%=      5-min Rain = 0
KBR1 182106Z 24020KT 28/02 A2962 RMK A01 T02760024  RH  020%=      5-min Rain = 0
KBR1 182107Z 25018G24KT 28/02 A2962 RMK A01 T02760024  RH  020%=      5-min Rain = 0
KBR1 182108Z 26024KT 28/02 A2962 RMK A01 T02780024  RH  019%=      5-min Rain = 0
KBR1 182109Z 26023KT 28/02 A2962 RMK A01 T02770022  RH  019%=      5-min Rain = 0
KBR1 182110Z 26021KT 28/02 A2962 RMK A01 T02760022  RH  019%=      5-min Rain = 0
KBR1 182111Z 26019KT 28/02 A2962 RMK A01 T02750024  RH  020%=      5-min Rain = 0
KBR1 182112Z 25024KT 28/02 A2962 RMK A01 T02770024  RH  020%=      5-min Rain = 0
KBR1 182113Z 25022KT 28/02 A2962 RMK A01 T02760021  RH  019%=      5-min Rain = 0
KBR1 182114Z 25020G25KT 28/02 A2962 RMK A01 T02750022  RH  020%=      5-min Rain = 0
KBR1 182115Z 25020G26KT 27/02 A2962 RMK A01 T02740022  RH  020%=      5-min Rain = 0
KBR1 182116Z 25016KT 27/02 A2962 RMK A01 T02740023  RH  020%=      5-min Rain = 0
KBR1 182117Z 24024KT 27/02 A2962 RMK A01 T02740024  RH  020%=      5-min Rain = 0
KBR1 182118Z 26020KT 27/03 A2962 RMK A01 T02740025  RH  020%=      5-min Rain = 0
KBR1 182119Z 26021KT 27/02 A2962 RMK A01 T02740024  RH  020%=      5-min Rain = 0
KBR1 182120Z 25023KT 27/03 A2962 RMK A01 T02740026  RH  020%=      5-min Rain = 0
KBR1 182121Z 25021KT 27/03 A2962 RMK A01 T02740026  RH  020%=      5-min Rain = 0
KBR1 182122Z 24018KT 28/03 A2962 RMK A01 T02750027  RH  020%=      5-min Rain = 0
KBR1 182123Z 24018KT 28/03 A2962 RMK A01 T02760027  RH  020%=      5-min Rain = 0
KBR1 182124Z 25017KT 28/03 A2962 RMK A01 T02750027  RH  020%=      5-min Rain = 0
KBR1 182125Z 26017KT 28/03 A2962 RMK A01 T02760026  RH  020%=      5-min Rain = 0
KBR1 182126Z 26018KT 28/03 A2962 RMK A01 T02760027  RH  020%=      5-min Rain = 0
KBR1 182127Z 26020KT 28/03 A2962 RMK A01 T02770025  RH  020%=      5-min Rain = 0
KBR1 182128Z 26022KT 28/02 A2962 RMK A01 T02750023  RH  020%=      5-min Rain = 0
KBR1 182129Z 25023KT 27/03 A2963 RMK A01 T02740025  RH  020%=      5-min Rain = 0
KBR1 182130Z 25023G28KT 27/02 A2963 RMK A01 T02730023  RH  020%=      5-min Rain = 0
KBR1 182131Z 25025KT 27/02 A2962 RMK A01 T02720024  RH  020%=      5-min Rain = 0
KBR1 182132Z 25025G31KT 27/02 A2963 RMK A01 T02730021  RH  020%=      5-min Rain = 0
KBR1 182133Z 26024G31KT 27/02 A2963 RMK A01 T02730021  RH  020%=      5-min Rain = 0
KBR1 182134Z 25022G27KT 27/02 A2963 RMK A01 T02730020  RH  019%=      5-min Rain = 0
KBR1 182135Z 26020KT 27/02 A2963 RMK A01 T02730021  RH  020%=      5-min Rain = 0
KBR1 182136Z 26022KT 28/02 A2963 RMK A01 T02750020  RH  019%=      5-min Rain = 0
KBR1 182137Z 26023KT 27/02 A2963 RMK A01 T02740020  RH  019%=      5-min Rain = 0
KBR1 182138Z 25022KT 27/02 A2963 RMK A01 T02730019  RH  019%=      5-min Rain = 0
KBR1 182139Z 25023KT 27/02 A2963 RMK A01 T02730019  RH  019%=      5-min Rain = 0
KBR1 182140Z 24021KT 27/02 A2963 RMK A01 T02710016  RH  019%=      5-min Rain = 0
KBR1 182141Z 25016KT 27/02 A2963 RMK A01 T02700018  RH  019%=      5-min Rain = 0
KBR1 182142Z 25020KT 27/02 A2963 RMK A01 T02710020  RH  020%=      5-min Rain = 0
KBR1 182143Z 26022G27KT 27/02 A2963 RMK A01 T02730018  RH  019%=      5-min Rain = 0
KBR1 182144Z 25021KT 27/02 A2963 RMK A01 T02730018  RH  019%=      5-min Rain = 0
KBR1 182145Z 24022KT 27/02 A2963 RMK A01 T02720017  RH  019%=      5-min Rain = 0
KBR1 182146Z 24023KT 27/02 A2963 RMK A01 T02720018  RH  019%=      5-min Rain = 0
KBR1 182147Z 24021KT 27/02 A2963 RMK A01 T02720017  RH  019%=      5-min Rain = 0
KBR1 182148Z 24017KT 27/02 A2963 RMK A01 T02710016  RH  019%=      5-min Rain = 0
KBR1 182149Z 24023G28KT 27/02 A2963 RMK A01 T02710018  RH  019%=      5-min Rain = 0
KBR1 182150Z 24025G31KT 27/02 A2963 RMK A01 T02710015  RH  019%=      5-min Rain = 0
KBR1 182151Z 24025G32KT 27/02 A2963 RMK A01 T02710015  RH  019%=      5-min Rain = 0
KBR1 182152Z 25023KT 27/01 A2963 RMK A01 T02710013  RH  019%=      5-min Rain = 0
KBR1 182153Z 24022KT 27/01 A2963 RMK A01 T02700014  RH  019%=      5-min Rain = 0
KBR1 182154Z 24023KT 27/01 A2963 RMK A01 T02700014  RH  019%=      5-min Rain = 0
KBR1 182155Z 25023KT 27/02 A2963 RMK A01 T02690015  RH  019%=      5-min Rain = 0
KBR1 182156Z 25022KT 27/02 A2963 RMK A01 T02690015  RH  019%=      5-min Rain = 0
KBR1 182157Z 25021KT 27/01 A2963 RMK A01 T02690014  RH  019%=      5-min Rain = 0
KBR1 182158Z 25020KT 27/02 A2963 RMK A01 T02690015  RH  019%=      5-min Rain = 0
KBR1 182159Z 24020KT 27/02 A2963 RMK A01 T02690015  RH  019%=      5-min Rain = 0
KBR1 182200Z 26017KT 27/02 A2963 RMK A01 T02690015  RH  019%=      5-min Rain = 0
KBR1 182201Z 25020KT 27/02 A2963 RMK A01 T02700015  RH  019%=      5-min Rain = 0
KBR1 182202Z 27019KT 27/01 A2963 RMK A01 T02710008  RH  018%=      5-min Rain = 0
KBR1 182203Z 26019KT 27/01 A2963 RMK A01 T02710008  RH  018%=      5-min Rain = 0
KBR1 182204Z 26023G29KT 27/01 A2963 RMK A01 T02720007  RH  018%=      5-min Rain = 0
KBR1 182205Z 25023G28KT 27/01 A2964 RMK A01 T02720006  RH  018%=      5-min Rain = 0
KBR1 182206Z 25021KT 27/01 A2964 RMK A01 T02710006  RH  018%=      5-min Rain = 0
KBR1 182207Z 25023KT 27/00 A2964 RMK A01 T02700004  RH  018%=      5-min Rain = 0
KBR1 182208Z 26021KT 27/00 A2964 RMK A01 T02690001  RH  017%=      5-min Rain = 0
KBR1 182209Z 26021KT 27/00 A2964 RMK A01 T02690001  RH  017%=      5-min Rain = 0
KBR1 182210Z 26022KT 27/00 A2964 RMK A01 T02690000  RH  017%=      5-min Rain = 0
KBR1 182211Z 26021G26KT 27/M00 A2964 RMK A01 T02701002  RH  017%=      5-min Rain = 0
KBR1 182212Z 27023KT 27/M01 A2964 RMK A01 T02701009  RH  016%=      5-min Rain = 0
KBR1 182213Z 27022KT 27/M01 A2964 RMK A01 T02691011  RH  016%=      5-min Rain = 0
KBR1 182214Z 27021KT 27/M01 A2964 RMK A01 T02691010  RH  016%=      5-min Rain = 0
KBR1 182215Z 27019KT 27/M01 A2964 RMK A01 T02691008  RH  016%=      5-min Rain = 0
KBR1 182216Z 26017G23KT 27/M00 A2964 RMK A01 T02691003  RH  017%=      5-min Rain = 0
KBR1 182217Z 26022KT 27/00 A2964 RMK A01 T02710002  RH  017%=      5-min Rain = 0
KBR1 182218Z 26021G26KT 27/01 A2964 RMK A01 T02710005  RH  018%=      5-min Rain = 0
KBR1 182219Z 25021G26KT 27/01 A2964 RMK A01 T02710006  RH  018%=      5-min Rain = 0
KBR1 182220Z 25025G30KT 27/00 A2964 RMK A01 T027000-0  RH  017%=      5-min Rain = 0
KBR1 182221Z 25025G31KT 27/M00 A2964 RMK A01 T02681003  RH  017%=      5-min Rain = 0
KBR1 182222Z 26022KT 27/M00 A2964 RMK A01 T02671002  RH  017%=      5-min Rain = 0
KBR1 182223Z 25023KT 27/00 A2964 RMK A01 T026600-0  RH  017%=      5-min Rain = 0
KBR1 182224Z 26022KT 27/00 A2964 RMK A01 T026600-0  RH  017%=      5-min Rain = 0
KBR1 182225Z 26024KT 27/M00 A2964 RMK A01 T02661001  RH  017%=      5-min Rain = 0
KBR1 182226Z 26024G29KT 27/M00 A2964 RMK A01 T02651001  RH  018%=      5-min Rain = 0
KBR1 182227Z 26023KT 26/00 A2964 RMK A01 T02640000  RH  018%=      5-min Rain = 0
KBR1 182228Z 26025G30KT 26/00 A2964 RMK A01 T02640000  RH  018%=      5-min Rain = 0
KBR1 182229Z 25023G28KT 26/M00 A2964 RMK A01 T02641001  RH  018%=      5-min Rain = 0
KBR1 182230Z 25025KT 26/M00 A2964 RMK A01 T02641001  RH  018%=      5-min Rain = 0
KBR1 182231Z 25020KT 26/00 A2964 RMK A01 T026400-0  RH  018%=      5-min Rain = 0
KBR1 182232Z 25020KT 26/00 A2964 RMK A01 T02630000  RH  018%=      5-min Rain = 0
KBR1 182233Z 25021KT 26/00 A2964 RMK A01 T02640001  RH  018%=      5-min Rain = 0
KBR1 182234Z 26019KT 26/00 A2964 RMK A01 T02630002  RH  018%=      5-min Rain = 0
KBR1 182235Z 25019KT 26/00 A2964 RMK A01 T02630003  RH  018%=      5-min Rain = 0
KBR1 182236Z 25023KT 26/00 A2964 RMK A01 T02640001  RH  018%=      5-min Rain = 0
KBR1 182237Z 25020KT 26/00 A2964 RMK A01 T02630002  RH  018%=      5-min Rain = 0
KBR1 182238Z 26022G27KT 26/00 A2964 RMK A01 T02630002  RH  018%=      5-min Rain = 0
KBR1 182239Z 26025G30KT 26/00 A2964 RMK A01 T02620000  RH  018%=      5-min Rain = 0
KBR1 182240Z 26022G28KT 26/00 A2964 RMK A01 T02610002  RH  018%=      5-min Rain = 0
KBR1 182241Z 25017KT 26/00 A2964 RMK A01 T02610003  RH  018%=      5-min Rain = 0
KBR1 182242Z 24019KT 26/00 A2964 RMK A01 T02630004  RH  018%=      5-min Rain = 0
KBR1 182243Z 25019G24KT 26/00 A2964 RMK A01 T02630003  RH  018%=      5-min Rain = 0
KBR1 182244Z 25024KT 26/00 A2964 RMK A01 T02630001  RH  018%=      5-min Rain = 0
KBR1 182245Z 25020G26KT 26/00 A2964 RMK A01 T026200-0  RH  018%=      5-min Rain = 0
KBR1 182246Z 25020G26KT 26/00 A2964 RMK A01 T02620001  RH  018%=      5-min Rain = 0
KBR1 182247Z 24023G28KT 26/M00 A2964 RMK A01 T02611001  RH  018%=      5-min Rain = 0
KBR1 182248Z 24023KT 26/M00 A2964 RMK A01 T02611003  RH  018%=      5-min Rain = 0
KBR1 182249Z 25020G25KT 26/M00 A2964 RMK A01 T02601002  RH  018%=      5-min Rain = 0
KBR1 182250Z 25022G30KT 26/M00 A2964 RMK A01 T02611001  RH  018%=      5-min Rain = 0
KBR1 182251Z 25025KT 26/M01 A2964 RMK A01 T02611006  RH  017%=      5-min Rain = 0
KBR1 182252Z 26020G26KT 26/M01 A2964 RMK A01 T02601007  RH  017%=      5-min Rain = 0
KBR1 182253Z 26023KT 26/M01 A2964 RMK A01 T02591007  RH  017%=      5-min Rain = 0
KBR1 182254Z 25020KT 26/M01 A2964 RMK A01 T02591005  RH  018%=      5-min Rain = 0
KBR1 182255Z 25020KT 26/M01 A2964 RMK A01 T02591005  RH  018%=      5-min Rain = 0
KBR1 182256Z 26020KT 26/M01 A2964 RMK A01 T02591006  RH  018%=      5-min Rain = 0
KBR1 182257Z 25021KT 26/M01 A2964 RMK A01 T02591005  RH  018%=      5-min Rain = 0
KBR1 182258Z 25022G27KT 26/M01 A2964 RMK A01 T02591005  RH  018%=      5-min Rain = 0
KBR1 182259Z 25023G28KT 26/M01 A2965 RMK A01 T02581005  RH  018%=      5-min Rain = 0
KBR1 182300Z 25022G27KT 26/M01 A2965 RMK A01 T02581005  RH  018%=      5-min Rain = 0
KBR1 182301Z 26022G28KT 26/M01 A2964 RMK A01 T02571006  RH  018%=      5-min Rain = 0
KBR1 182302Z 26023KT 26/M01 A2964 RMK A01 T02561007  RH  018%=      5-min Rain = 0
KBR1 182303Z 26021KT 25/M01 A2965 RMK A01 T02531007  RH  018%=      5-min Rain = 0
KBR1 182304Z 25018KT 25/M01 A2965 RMK A01 T02511006  RH  018%=      5-min Rain = 0
KBR1 182305Z 26021KT 25/M01 A2965 RMK A01 T02491006  RH  019%=      5-min Rain = 0
KBR1 182306Z 26018KT 25/M01 A2965 RMK A01 T02481007  RH  019%=      5-min Rain = 0
KBR1 182307Z 25017KT 25/M01 A2965 RMK A01 T02471007  RH  019%=      5-min Rain = 0
KBR1 182308Z 25014KT 25/M01 A2965 RMK A01 T02461006  RH  019%=      5-min Rain = 0
KBR1 182309Z 25018KT 25/M01 A2965 RMK A01 T02451006  RH  019%=      5-min Rain = 0
KBR1 182310Z 25019KT 25/M01 A2965 RMK A01 T02451008  RH  019%=      5-min Rain = 0
KBR1 182311Z 26019G24KT 25/M01 A2965 RMK A01 T02451009  RH  019%=      5-min Rain = 0
KBR1 182312Z 26021G26KT 25/M01 A2965 RMK A01 T02451009  RH  019%=      5-min Rain = 0
KBR1 182313Z 25017KT 24/M01 A2965 RMK A01 T02441009  RH  019%=      5-min Rain = 0
KBR1 182314Z 25017KT 24/M01 A2965 RMK A01 T02431008  RH  019%=      5-min Rain = 0
KBR1 182315Z 25018KT 24/M01 A2965 RMK A01 T02421009  RH  019%=      5-min Rain = 0
KBR1 182316Z 25016KT 24/M01 A2965 RMK A01 T02411009  RH  019%=      5-min Rain = 0
KBR1 182317Z 25017KT 24/M01 A2965 RMK A01 T02411008  RH  019%=      5-min Rain = 0
KBR1 182318Z 24016KT 24/M01 A2965 RMK A01 T02401008  RH  019%=      5-min Rain = 0
KBR1 182319Z 25017KT 24/M01 A2965 RMK A01 T02401008  RH  019%=      5-min Rain = 0
KBR1 182320Z 25016KT 24/M01 A2965 RMK A01 T02401008  RH  019%=      5-min Rain = 0
KBR1 182321Z 24018KT 24/M01 A2965 RMK A01 T02401007  RH  019%=      5-min Rain = 0
KBR1 182322Z 25016KT 24/M01 A2965 RMK A01 T02401008  RH  019%=      5-min Rain = 0
KBR1 182323Z 24017KT 24/M01 A2965 RMK A01 T02411007  RH  019%=      5-min Rain = 0
KBR1 182324Z 24017KT 24/M01 A2965 RMK A01 T02401007  RH  019%=      5-min Rain = 0
KBR1 182325Z 24016KT 24/M01 A2965 RMK A01 T02411007  RH  019%=      5-min Rain = 0
KBR1 182326Z 24016KT 24/M01 A2965 RMK A01 T02411006  RH  019%=      5-min Rain = 0
KBR1 182327Z 24015KT 24/M01 A2965 RMK A01 T02401006  RH  020%=      5-min Rain = 0
KBR1 182328Z 24012KT 24/M01 A2965 RMK A01 T02401006  RH  020%=      5-min Rain = 0
KBR1 182329Z 24013KT 24/M01 A2965 RMK A01 T02391005  RH  020%=      5-min Rain = 0
KBR1 182330Z 24013KT 24/M01 A2965 RMK A01 T02381005  RH  020%=      5-min Rain = 0
KBR1 182331Z 24013KT 24/M00 A2965 RMK A01 T02381004  RH  020%=      5-min Rain = 0
KBR1 182332Z 25015KT 24/M00 A2965 RMK A01 T02381004  RH  020%=      5-min Rain = 0
KBR1 182333Z 25014KT 24/M01 A2965 RMK A01 T02371006  RH  020%=      5-min Rain = 0
KBR1 182334Z 24014KT 24/M01 A2965 RMK A01 T02381005  RH  020%=      5-min Rain = 0
KBR1 182335Z 25017KT 24/M01 A2965 RMK A01 T02381005  RH  020%=      5-min Rain = 0
KBR1 182336Z 24016KT 24/M01 A2965 RMK A01 T02391005  RH  020%=      5-min Rain = 0
KBR1 182337Z 25016G21KT 24/M01 A2965 RMK A01 T02391005  RH  020%=      5-min Rain = 0
KBR1 182338Z 24015KT 24/M01 A2965 RMK A01 T02391005  RH  020%=      5-min Rain = 0
KBR1 182339Z 24017KT 24/M01 A2965 RMK A01 T02391005  RH  020%=      5-min Rain = 0
KBR1 182340Z 24016KT 24/M01 A2965 RMK A01 T02391005  RH  020%=      5-min Rain = 0
KBR1 182341Z 24016KT 24/M00 A2965 RMK A01 T02401004  RH  020%=      5-min Rain = 0
KBR1 182342Z 24017KT 24/M00 A2965 RMK A01 T02391004  RH  020%=      5-min Rain = 0
KBR1 182343Z 24016KT 24/M00 A2966 RMK A01 T02401004  RH  020%=      5-min Rain = 0
KBR1 182344Z 24013KT 24/M00 A2966 RMK A01 T02401003  RH  020%=      5-min Rain = 0
KBR1 182345Z 24016KT 24/M00 A2966 RMK A01 T02391003  RH  020%=      5-min Rain = 0
KBR1 182346Z 24014KT 24/M00 A2966 RMK A01 T02391002  RH  020%=      5-min Rain = 0
KBR1 182347Z 24014KT 24/M00 A2966 RMK A01 T02381002  RH  020%=      5-min Rain = 0
KBR1 182348Z 24016KT 24/M00 A2966 RMK A01 T02371002  RH  020%=      5-min Rain = 0
KBR1 182349Z 24015KT 24/M00 A2966 RMK A01 T02381002  RH  020%=      5-min Rain = 0
KBR1 182350Z 24019KT 24/M00 A2966 RMK A01 T02371003  RH  020%=      5-min Rain = 0
KBR1 182351Z 24017KT 24/M00 A2966 RMK A01 T02381004  RH  020%=      5-min Rain = 0
KBR1 182352Z 24015KT 24/M00 A2966 RMK A01 T02381004  RH  020%=      5-min Rain = 0
KBR1 182353Z 24017G22KT 24/M00 A2966 RMK A01 T02381004  RH  020%=      5-min Rain = 0
KBR1 182354Z 24016KT 24/M00 A2966 RMK A01 T02381003  RH  020%=      5-min Rain = 0
KBR1 182355Z 24016KT 24/M00 A2966 RMK A01 T02371003  RH  020%=      5-min Rain = 0
KBR1 182356Z 24014KT 24/M00 A2966 RMK A01 T02371004  RH  020%=      5-min Rain = 0
KBR1 182357Z 24014KT 24/M00 A2966 RMK A01 T02361003  RH  021%=      5-min Rain = 0
KBR1 182358Z 24014KT 24/M00 A2966 RMK A01 T02351003  RH  021%=      5-min Rain = 0
KBR1 182359Z 25014KT 24/M00 A2966 RMK A01 T02351003  RH  021%=      5-min Rain = 0
KBR1 190000Z 25016KT 23/M00 A2966 RMK A01 T02341004  RH  021%=      5-min Rain = 0
KBR1 190001Z 25016KT 23/M00 A2966 RMK A01 T02341004  RH  021%=      5-min Rain = 0
KBR1 190002Z 25016KT 24/M00 A2966 RMK A01 T02351003  RH  021%=      5-min Rain = 0
KBR1 190003Z 25016KT 24/M00 A2966 RMK A01 T02351003  RH  021%=      5-min Rain = 0
KBR1 190004Z 25016KT 24/M00 A2966 RMK A01 T02351002  RH  021%=      5-min Rain = 0
KBR1 190005Z 25017KT 23/M00 A2966 RMK A01 T02341003  RH  021%=      5-min Rain = 0
KBR1 190006Z 24017KT 23/M00 A2966 RMK A01 T02331003  RH  021%=      5-min Rain = 0
KBR1 190007Z 24016KT 23/M00 A2966 RMK A01 T02331002  RH  021%=      5-min Rain = 0
KBR1 190008Z 25018KT 23/M00 A2966 RMK A01 T02321003  RH  021%=      5-min Rain = 0
KBR1 190009Z 25018KT 23/M00 A2966 RMK A01 T02321003  RH  021%=      5-min Rain = 0
KBR1 190010Z 25017KT 23/M00 A2966 RMK A01 T02321003  RH  021%=      5-min Rain = 0
KBR1 190011Z 25017KT 23/M00 A2966 RMK A01 T02321003  RH  021%=      5-min Rain = 0
KBR1 190012Z 25017KT 23/M00 A2966 RMK A01 T02321003  RH  021%=      5-min Rain = 0
KBR1 190013Z 25013KT 23/M00 A2966 RMK A01 T02311002  RH  021%=      5-min Rain = 0
KBR1 190014Z 25015KT 23/M00 A2966 RMK A01 T02291002  RH  022%=      5-min Rain = 0
KBR1 190015Z 25015KT 23/M00 A2966 RMK A01 T02281003  RH  022%=      5-min Rain = 0
KBR1 190016Z 26014KT 23/M00 A2966 RMK A01 T02281003  RH  022%=      5-min Rain = 0
KBR1 190017Z 26014KT 23/M00 A2966 RMK A01 T02271002  RH  022%=      5-min Rain = 0
KBR1 190018Z 26014KT 23/M00 A2966 RMK A01 T02261002  RH  022%=      5-min Rain = 0
KBR1 190019Z 26014KT 23/M00 A2966 RMK A01 T02251002  RH  022%=      5-min Rain = 0
KBR1 190020Z 26015KT 23/M00 A2966 RMK A01 T02251002  RH  022%=      5-min Rain = 0
KBR1 190021Z 26016KT 23/M00 A2966 RMK A01 T02251002  RH  022%=      5-min Rain = 0
KBR1 190022Z 26016KT 23/M00 A2966 RMK A01 T02251003  RH  022%=      5-min Rain = 0
KBR1 190023Z 25016G22KT 23/M00 A2966 RMK A01 T02251003  RH  022%=      5-min Rain = 0
KBR1 190024Z 25016KT 23/M00 A2966 RMK A01 T02251003  RH  022%=      5-min Rain = 0
KBR1 190025Z 25015G20KT 22/M00 A2966 RMK A01 T02241003  RH  022%=      5-min Rain = 0
KBR1 190026Z 25016KT 22/M00 A2966 RMK A01 T02241003  RH  022%=      5-min Rain = 0
KBR1 190027Z 25015KT 22/M00 A2967 RMK A01 T02241003  RH  022%=      5-min Rain = 0
KBR1 190028Z 26015KT 22/M00 A2967 RMK A01 T02241003  RH  022%=      5-min Rain = 0
KBR1 190029Z 26015KT 22/M00 A2967 RMK A01 T02241003  RH  022%=      5-min Rain = 0
KBR1 190030Z 26015KT 22/M00 A2967 RMK A01 T02241002  RH  022%=      5-min Rain = 0
KBR1 190031Z 25015KT 22/M00 A2967 RMK A01 T02231003  RH  022%=      5-min Rain = 0
KBR1 190032Z 25013KT 22/M00 A2967 RMK A01 T02231002  RH  022%=      5-min Rain = 0
KBR1 190033Z 25015KT 22/M00 A2967 RMK A01 T02231002  RH  022%=      5-min Rain = 0
KBR1 190034Z 25013KT 22/M00 A2967 RMK A01 T02231002  RH  022%=      5-min Rain = 0
KBR1 190035Z 25015KT 22/M00 A2967 RMK A01 T02221001  RH  023%=      5-min Rain = 0
KBR1 190036Z 25014KT 22/M00 A2967 RMK A01 T02221001  RH  023%=      5-min Rain = 0
KBR1 190037Z 25014KT 22/M00 A2967 RMK A01 T02221001  RH  023%=      5-min Rain = 0
KBR1 190038Z 24015KT 22/M00 A2967 RMK A01 T02211001  RH  023%=      5-min Rain = 0
KBR1 190039Z 25015KT 22/00 A2967 RMK A01 T022200-0  RH  023%=      5-min Rain = 0
KBR1 190040Z 25015KT 22/00 A2967 RMK A01 T02220000  RH  023%=      5-min Rain = 0
KBR1 190041Z 25016KT 22/00 A2967 RMK A01 T02220001  RH  023%=      5-min Rain = 0
KBR1 190042Z 25016KT 22/00 A2967 RMK A01 T02220002  RH  023%=      5-min Rain = 0
KBR1 190043Z 25014KT 22/00 A2967 RMK A01 T02220002  RH  023%=      5-min Rain = 0
KBR1 190044Z 25014KT 22/00 A2967 RMK A01 T02220003  RH  023%=      5-min Rain = 0
KBR1 190045Z 25015KT 22/00 A2967 RMK A01 T02210004  RH  024%=      5-min Rain = 0
KBR1 190046Z 25015KT 22/01 A2967 RMK A01 T02200005  RH  024%=      5-min Rain = 0
KBR1 190047Z 25015KT 22/01 A2968 RMK A01 T02210005  RH  024%=      5-min Rain = 0
KBR1 190048Z 25016KT 22/01 A2968 RMK A01 T02210006  RH  024%=      5-min Rain = 0
KBR1 190049Z 24019KT 22/01 A2968 RMK A01 T02200007  RH  024%=      5-min Rain = 0
KBR1 190050Z 25017KT 22/01 A2968 RMK A01 T02210007  RH  024%=      5-min Rain = 0
KBR1 190051Z 25017KT 22/01 A2968 RMK A01 T02210007  RH  024%=      5-min Rain = 0
KBR1 190052Z 25016KT 22/01 A2968 RMK A01 T02210008  RH  024%=      5-min Rain = 0
KBR1 190053Z 25015KT 22/01 A2968 RMK A01 T02200008  RH  025%=      5-min Rain = 0
KBR1 190054Z 25016KT 22/01 A2968 RMK A01 T02190009  RH  025%=      5-min Rain = 0
KBR1 190055Z 25015KT 22/01 A2968 RMK A01 T02190009  RH  025%=      5-min Rain = 0
KBR1 190056Z 25015KT 22/01 A2968 RMK A01 T02180009  RH  025%=      5-min Rain = 0
KBR1 190057Z 25014KT 22/01 A2968 RMK A01 T02180009  RH  025%=      5-min Rain = 0
KBR1 190058Z 25014KT 22/01 A2968 RMK A01 T02170010  RH  025%=      5-min Rain = 0
KBR1 190059Z 25014G19KT 22/01 A2968 RMK A01 T02160010  RH  025%=      5-min Rain = 0
KBR1 190100Z 25014KT 22/01 A2968 RMK A01 T02160010  RH  026%=      5-min Rain = 0
KBR1 190101Z 25014KT 22/01 A2968 RMK A01 T02150010  RH  026%=      5-min Rain = 0
KBR1 190102Z 25012KT 22/01 A2969 RMK A01 T02150011  RH  026%=      5-min Rain = 0
KBR1 190103Z 25013KT 21/01 A2969 RMK A01 T02140011  RH  026%=      5-min Rain = 0
KBR1 190104Z 25014KT 21/01 A2969 RMK A01 T02130010  RH  026%=      5-min Rain = 0
KBR1 190105Z 25012KT 21/01 A2969 RMK A01 T02130010  RH  026%=      5-min Rain = 0
KBR1 190106Z 24013KT 21/01 A2969 RMK A01 T02120011  RH  026%=      5-min Rain = 0
KBR1 190107Z 25013KT 21/01 A2969 RMK A01 T02120011  RH  026%=      5-min Rain = 0
KBR1 190108Z 24013KT 21/01 A2969 RMK A01 T02110011  RH  027%=      5-min Rain = 0
KBR1 190109Z 24012KT 21/01 A2969 RMK A01 T02100012  RH  027%=      5-min Rain = 0
KBR1 190110Z 24012KT 21/01 A2969 RMK A01 T02090012  RH  027%=      5-min Rain = 0
KBR1 190111Z 24012KT 21/01 A2969 RMK A01 T02080012  RH  027%=      5-min Rain = 0
KBR1 190112Z 24011KT 21/01 A2969 RMK A01 T02080012  RH  027%=      5-min Rain = 0
KBR1 190113Z 24011KT 21/01 A2969 RMK A01 T02070012  RH  027%=      5-min Rain = 0
KBR1 190114Z 24011KT 21/01 A2969 RMK A01 T02070012  RH  027%=      5-min Rain = 0
KBR1 190115Z 24013KT 21/01 A297 RMK A01 T02060012  RH  027%=      5-min Rain = 0
KBR1 190116Z 24012KT 21/01 A2969 RMK A01 T02070012  RH  027%=      5-min Rain = 0
KBR1 190117Z 25012KT 21/01 A297 RMK A01 T02080012  RH  027%=      5-min Rain = 0
KBR1 190118Z 25013KT 21/01 A297 RMK A01 T02080012  RH  027%=      5-min Rain = 0
KBR1 190119Z 25012KT 21/01 A297 RMK A01 T02080013  RH  027%=      5-min Rain = 0
KBR1 190120Z 25011KT 21/01 A297 RMK A01 T02080013  RH  027%=      5-min Rain = 0
KBR1 190121Z 25012G17KT 21/01 A297 RMK A01 T02080013  RH  027%=      5-min Rain = 0
KBR1 190122Z 25012KT 21/01 A297 RMK A01 T02080013  RH  027%=      5-min Rain = 0
KBR1 190123Z 25012KT 21/01 A297 RMK A01 T02080013  RH  027%=      5-min Rain = 0
KBR1 190124Z 25012KT 21/01 A297 RMK A01 T02090013  RH  027%=      5-min Rain = 0
KBR1 190125Z 25013KT 21/01 A297 RMK A01 T02080013  RH  027%=      5-min Rain = 0
KBR1 190126Z 25012KT 21/01 A297 RMK A01 T02080014  RH  027%=      5-min Rain = 0
KBR1 190127Z 25013KT 21/01 A297 RMK A01 T02080013  RH  027%=      5-min Rain = 0
KBR1 190128Z 25012KT 21/01 A297 RMK A01 T02080014  RH  028%=      5-min Rain = 0
KBR1 190129Z 25013KT 21/01 A297 RMK A01 T02070014  RH  028%=      5-min Rain = 0
KBR1 190130Z 25011KT 21/01 A297 RMK A01 T02070014  RH  028%=      5-min Rain = 0
KBR1 190131Z 25012KT 21/01 A297 RMK A01 T02070014  RH  028%=      5-min Rain = 0
KBR1 190132Z 25012KT 21/01 A297 RMK A01 T02070014  RH  028%=      5-min Rain = 0
KBR1 190133Z 25011KT 21/01 A297 RMK A01 T02060014  RH  028%=      5-min Rain = 0
KBR1 190134Z 25011KT 21/01 A297 RMK A01 T02060014  RH  028%=      5-min Rain = 0
KBR1 190135Z 26011KT 21/02 A297 RMK A01 T02060015  RH  028%=      5-min Rain = 0
KBR1 190136Z 27010KT 21/02 A2971 RMK A01 T02050015  RH  028%=      5-min Rain = 0
KBR1 190137Z 28010KT 20/02 A2971 RMK A01 T02040015  RH  028%=      5-min Rain = 0
KBR1 190138Z 29012KT 20/02 A2971 RMK A01 T02040015  RH  028%=      5-min Rain = 0
KBR1 190139Z 30011KT 20/02 A2972 RMK A01 T02040015  RH  029%=      5-min Rain = 0
KBR1 190140Z 30011KT 20/02 A2972 RMK A01 T02030015  RH  029%=      5-min Rain = 0
KBR1 190141Z 30011KT 20/02 A2972 RMK A01 T02020015  RH  029%=      5-min Rain = 0
KBR1 190142Z 29010KT 20/02 A2972 RMK A01 T02010015  RH  029%=      5-min Rain = 0
KBR1 190143Z 29010KT 20/02 A2971 RMK A01 T02010015  RH  029%=      5-min Rain = 0
KBR1 190144Z 29010KT 20/02 A2971 RMK A01 T02010015  RH  029%=      5-min Rain = 0
KBR1 190145Z 29009KT 20/02 A2971 RMK A01 T02010015  RH  029%=      5-min Rain = 0
KBR1 190146Z 28008KT 20/02 A2971 RMK A01 T02020015  RH  029%=      5-min Rain = 0
KBR1 190147Z 28008KT 20/02 A2971 RMK A01 T02010015  RH  029%=      5-min Rain = 0
KBR1 190148Z 28008KT 20/01 A2972 RMK A01 T02010014  RH  029%=      5-min Rain = 0
KBR1 190149Z 28008KT 20/01 A2972 RMK A01 T02010014  RH  029%=      5-min Rain = 0
KBR1 190150Z 28008KT 20/01 A2972 RMK A01 T02010014  RH  029%=      5-min Rain = 0
KBR1 190151Z 28009KT 20/01 A2972 RMK A01 T02010013  RH  029%=      5-min Rain = 0
KBR1 190152Z 28009KT 20/01 A2972 RMK A01 T02000013  RH  029%=      5-min Rain = 0
KBR1 190153Z 29010KT 20/01 A2972 RMK A01 T02000011  RH  028%=      5-min Rain = 0
KBR1 190154Z 29010KT 20/01 A2972 RMK A01 T02010009  RH  028%=      5-min Rain = 0
KBR1 190155Z 29011KT 20/01 A2972 RMK A01 T02010008  RH  027%=      5-min Rain = 0
KBR1 190156Z 29012KT 20/01 A2972 RMK A01 T02020006  RH  027%=      5-min Rain = 0
KBR1 190157Z 29012KT 20/01 A2972 RMK A01 T02020005  RH  027%=      5-min Rain = 0
KBR1 190158Z 29011KT 20/00 A2972 RMK A01 T02030004  RH  026%=      5-min Rain = 0
KBR1 190159Z 29011KT 20/00 A2972 RMK A01 T02030004  RH  026%=      5-min Rain = 0
KBR1 190200Z 29011KT 20/00 A2972 RMK A01 T02030004  RH  026%=      5-min Rain = 0
KBR1 190201Z 29010KT 20/01 A2972 RMK A01 T02030005  RH  027%=      5-min Rain = 0
KBR1 190202Z 29010KT 20/01 A2972 RMK A01 T02010005  RH  027%=      5-min Rain = 0
KBR1 190203Z 29011KT 20/01 A2972 RMK A01 T02000005  RH  027%=      5-min Rain = 0
KBR1 190204Z 29010KT 20/00 A2972 RMK A01 T02000004  RH  027%=      5-min Rain = 0
KBR1 190205Z 29011KT 20/00 A2972 RMK A01 T02000004  RH  027%=      5-min Rain = 0
KBR1 190206Z 29011KT 20/00 A2972 RMK A01 T02000004  RH  027%=      5-min Rain = 0
KBR1 190207Z 29011KT 20/00 A2972 RMK A01 T02000004  RH  027%=      5-min Rain = 0
KBR1 190208Z 29011KT 20/00 A2973 RMK A01 T01990004  RH  027%=      5-min Rain = 0
KBR1 190209Z 29009KT 20/01 A2973 RMK A01 T01990005  RH  027%=      5-min Rain = 0
KBR1 190210Z 29009KT 20/01 A2973 RMK A01 T01970005  RH  027%=      5-min Rain = 0
KBR1 190211Z 29010KT 20/00 A2973 RMK A01 T01970004  RH  028%=      5-min Rain = 0
KBR1 190212Z 29011KT 20/01 A2973 RMK A01 T01960005  RH  028%=      5-min Rain = 0
KBR1 190213Z 29012KT 20/00 A2973 RMK A01 T01960004  RH  028%=      5-min Rain = 0
KBR1 190214Z 29012KT 20/00 A2973 RMK A01 T01960003  RH  027%=      5-min Rain = 0
KBR1 190215Z 29012KT 20/00 A2973 RMK A01 T01970003  RH  027%=      5-min Rain = 0
KBR1 190216Z 29012KT 20/00 A2973 RMK A01 T01980003  RH  027%=      5-min Rain = 0
KBR1 190217Z 29012KT 20/00 A2973 RMK A01 T01980003  RH  027%=      5-min Rain = 0
KBR1 190218Z 29012KT 20/00 A2973 RMK A01 T01970003  RH  027%=      5-min Rain = 0
KBR1 190219Z 29012KT 20/00 A2973 RMK A01 T01970003  RH  027%=      5-min Rain = 0
KBR1 190220Z 29012KT 20/00 A2973 RMK A01 T01960004  RH  027%=      5-min Rain = 0
KBR1 190221Z 29012KT 20/00 A2973 RMK A01 T01960004  RH  028%=      5-min Rain = 0
KBR1 190222Z 29011KT 20/00 A2973 RMK A01 T01950004  RH  028%=      5-min Rain = 0
KBR1 190223Z 29011KT 19/00 A2973 RMK A01 T01940004  RH  028%=      5-min Rain = 0
KBR1 190224Z 29011KT 19/00 A2973 RMK A01 T01930004  RH  028%=      5-min Rain = 0
KBR1 190225Z 29012KT 19/00 A2973 RMK A01 T01930004  RH  028%=      5-min Rain = 0
KBR1 190226Z 29010KT 19/00 A2973 RMK A01 T01920004  RH  028%=      5-min Rain = 0
KBR1 190227Z 29011KT 19/00 A2973 RMK A01 T01910004  RH  028%=      5-min Rain = 0
KBR1 190228Z 29011KT 19/00 A2973 RMK A01 T01900004  RH  029%=      5-min Rain = 0
KBR1 190229Z 29011KT 19/00 A2973 RMK A01 T01900004  RH  029%=      5-min Rain = 0
KBR1 190230Z 29011KT 19/00 A2973 RMK A01 T01900004  RH  029%=      5-min Rain = 0
KBR1 190231Z 29010KT 19/00 A2973 RMK A01 T01890004  RH  029%=      5-min Rain = 0
KBR1 190232Z 29010KT 19/00 A2973 RMK A01 T01880004  RH  029%=      5-min Rain = 0
KBR1 190233Z 30010KT 19/00 A2973 RMK A01 T01870004  RH  029%=      5-min Rain = 0
KBR1 190234Z 29011KT 19/00 A2973 RMK A01 T01860004  RH  029%=      5-min Rain = 0
KBR1 190235Z 29010KT 19/00 A2973 RMK A01 T01850004  RH  029%=      5-min Rain = 0
KBR1 190236Z 29010KT 19/00 A2974 RMK A01 T01850004  RH  030%=      5-min Rain = 0
KBR1 190237Z 29009KT 18/00 A2974 RMK A01 T01840004  RH  030%=      5-min Rain = 0
KBR1 190238Z 29010KT 18/00 A2974 RMK A01 T01830004  RH  030%=      5-min Rain = 0
KBR1 190239Z 29010KT 18/00 A2974 RMK A01 T01820004  RH  030%=      5-min Rain = 0
KBR1 190240Z 29010KT 18/00 A2974 RMK A01 T01810004  RH  030%=      5-min Rain = 0
KBR1 190241Z 29010KT 18/00 A2974 RMK A01 T01800004  RH  030%=      5-min Rain = 0
KBR1 190242Z 29010KT 18/00 A2974 RMK A01 T01800004  RH  030%=      5-min Rain = 0
KBR1 190243Z 29010KT 18/00 A2974 RMK A01 T01790003  RH  031%=      5-min Rain = 0
KBR1 190244Z 29010KT 18/00 A2974 RMK A01 T01790004  RH  031%=      5-min Rain = 0
KBR1 190245Z 29010KT 18/00 A2974 RMK A01 T01780004  RH  031%=      5-min Rain = 0
KBR1 190246Z 29009KT 18/00 A2974 RMK A01 T01770003  RH  031%=      5-min Rain = 0
KBR1 190247Z 30009KT 18/00 A2974 RMK A01 T01760004  RH  031%=      5-min Rain = 0
KBR1 190248Z 30009KT 17/00 A2974 RMK A01 T01740003  RH  031%=      5-min Rain = 0
KBR1 190249Z 30009KT 17/00 A2974 RMK A01 T01740004  RH  032%=      5-min Rain = 0
KBR1 190250Z 30009KT 17/00 A2974 RMK A01 T01730004  RH  032%=      5-min Rain = 0
KBR1 190251Z 30009KT 17/00 A2974 RMK A01 T01720004  RH  032%=      5-min Rain = 0
KBR1 190252Z 30009KT 17/00 A2974 RMK A01 T01710003  RH  032%=      5-min Rain = 0
KBR1 190253Z 30009KT 17/00 A2974 RMK A01 T01700003  RH  032%=      5-min Rain = 0
KBR1 190254Z 30009KT 17/00 A2974 RMK A01 T01690003  RH  032%=      5-min Rain = 0
KBR1 190255Z 30009KT 17/00 A2974 RMK A01 T01680003  RH  033%=      5-min Rain = 0
KBR1 190256Z 31009KT 17/00 A2974 RMK A01 T01670004  RH  033%=      5-min Rain = 0
KBR1 190257Z 30009KT 17/00 A2974 RMK A01 T01660004  RH  033%=      5-min Rain = 0
KBR1 190258Z 30009KT 17/00 A2974 RMK A01 T01660004  RH  033%=      5-min Rain = 0
KBR1 190259Z 30009KT 17/00 A2974 RMK A01 T01650004  RH  033%=      5-min Rain = 0
KBR1 190300Z 31008KT 16/00 A2974 RMK A01 T01640004  RH  034%=      5-min Rain = 0
KBR1 190301Z 30009KT 16/00 A2975 RMK A01 T01640004  RH  034%=      5-min Rain = 0
KBR1 190302Z 31009KT 16/00 A2975 RMK A01 T01630004  RH  034%=      5-min Rain = 0
KBR1 190303Z 31008KT 16/00 A2975 RMK A01 T01620004  RH  034%=      5-min Rain = 0
KBR1 190304Z 31008KT 16/00 A2975 RMK A01 T01620004  RH  034%=      5-min Rain = 0
KBR1 190305Z 31008KT 16/00 A2975 RMK A01 T01610004  RH  034%=      5-min Rain = 0
KBR1 190306Z 30008KT 16/00 A2975 RMK A01 T01610004  RH  035%=      5-min Rain = 0
KBR1 190307Z 31008KT 16/00 A2975 RMK A01 T01600004  RH  035%=      5-min Rain = 0
KBR1 190308Z 30008KT 16/00 A2975 RMK A01 T01590004  RH  035%=      5-min Rain = 0
KBR1 190309Z 30009KT 16/00 A2975 RMK A01 T01590004  RH  035%=      5-min Rain = 0
KBR1 190310Z 31008KT 16/00 A2975 RMK A01 T01580004  RH  035%=      5-min Rain = 0
KBR1 190311Z 30008KT 16/00 A2975 RMK A01 T01580004  RH  035%=      5-min Rain = 0
KBR1 190312Z 30008KT 16/00 A2975 RMK A01 T01570004  RH  035%=      5-min Rain = 0
KBR1 190313Z 30009KT 16/00 A2975 RMK A01 T01570004  RH  035%=      5-min Rain = 0
KBR1 190314Z 30009KT 16/00 A2975 RMK A01 T01560004  RH  036%=      5-min Rain = 0
KBR1 190315Z 31008KT 16/01 A2975 RMK A01 T01560005  RH  036%=      5-min Rain = 0
KBR1 190316Z 31009KT 16/01 A2975 RMK A01 T01550005  RH  036%=      5-min Rain = 0
KBR1 190317Z 31008KT 15/01 A2975 RMK A01 T01540005  RH  036%=      5-min Rain = 0
KBR1 190318Z 31008KT 15/00 A2975 RMK A01 T01530004  RH  036%=      5-min Rain = 0
KBR1 190319Z 31008KT 15/01 A2975 RMK A01 T01530005  RH  036%=      5-min Rain = 0
KBR1 190320Z 31008KT 15/01 A2975 RMK A01 T01520005  RH  037%=      5-min Rain = 0
KBR1 190321Z 31008KT 15/01 A2975 RMK A01 T01500005  RH  037%=      5-min Rain = 0
KBR1 190322Z 32007KT 15/01 A2975 RMK A01 T01480005  RH  038%=      5-min Rain = 0
KBR1 190323Z 32007KT 15/01 A2975 RMK A01 T01470005  RH  038%=      5-min Rain = 0
KBR1 190324Z 31007KT 15/01 A2975 RMK A01 T01450005  RH  038%=      5-min Rain = 0
KBR1 190325Z 31007KT 14/01 A2976 RMK A01 T01440005  RH  039%=      5-min Rain = 0
KBR1 190326Z 31007KT 14/01 A2976 RMK A01 T01420005  RH  039%=      5-min Rain = 0
KBR1 190327Z 31008KT 14/01 A2976 RMK A01 T01400005  RH  040%=      5-min Rain = 0
KBR1 190328Z 31008KT 14/01 A2976 RMK A01 T01380005  RH  040%=      5-min Rain = 0
KBR1 190329Z 31008KT 14/01 A2976 RMK A01 T01370005  RH  040%=      5-min Rain = 0
KBR1 190330Z 31008KT 14/01 A2976 RMK A01 T01360005  RH  041%=      5-min Rain = 0
KBR1 190331Z 31008KT 14/01 A2976 RMK A01 T01350005  RH  041%=      5-min Rain = 0
KBR1 190332Z 32008KT 13/01 A2976 RMK A01 T01340005  RH  041%=      5-min Rain = 0
KBR1 190333Z 32008KT 13/01 A2976 RMK A01 T01330005  RH  042%=      5-min Rain = 0
KBR1 190334Z 32008KT 13/01 A2976 RMK A01 T01330005  RH  042%=      5-min Rain = 0
KBR1 190335Z 32008KT 13/01 A2976 RMK A01 T01320005  RH  042%=      5-min Rain = 0
KBR1 190336Z 32008KT 13/01 A2976 RMK A01 T01320005  RH  042%=      5-min Rain = 0
KBR1 190337Z 32008KT 13/01 A2976 RMK A01 T01320005  RH  042%=      5-min Rain = 0
KBR1 190338Z 32009KT 13/01 A2977 RMK A01 T01320005  RH  042%=      5-min Rain = 0
KBR1 190339Z 32009KT 13/01 A2977 RMK A01 T01320005  RH  042%=      5-min Rain = 0
KBR1 190340Z 32009KT 13/01 A2977 RMK A01 T01330005  RH  042%=      5-min Rain = 0
KBR1 190341Z 32010KT 13/01 A2977 RMK A01 T01330005  RH  041%=      5-min Rain = 0
KBR1 190342Z 31010KT 13/01 A2977 RMK A01 T01340005  RH  041%=      5-min Rain = 0
KBR1 190343Z 31011KT 14/01 A2977 RMK A01 T01360005  RH  041%=      5-min Rain = 0
KBR1 190344Z 31011KT 14/01 A2977 RMK A01 T01380005  RH  040%=      5-min Rain = 0
KBR1 190345Z 30010KT 14/01 A2977 RMK A01 T01400005  RH  040%=      5-min Rain = 0
KBR1 190346Z 30009KT 14/01 A2977 RMK A01 T01400005  RH  040%=      5-min Rain = 0
KBR1 190347Z 31008KT 14/01 A2977 RMK A01 T01410005  RH  039%=      5-min Rain = 0
KBR1 190348Z 31008KT 14/01 A2977 RMK A01 T01410005  RH  039%=      5-min Rain = 0
KBR1 190349Z 30007KT 14/01 A2977 RMK A01 T01400005  RH  040%=      5-min Rain = 0
KBR1 190350Z 31007KT 14/01 A2977 RMK A01 T01400005  RH  040%=      5-min Rain = 0
KBR1 190351Z 31007KT 14/01 A2977 RMK A01 T01380005  RH  040%=      5-min Rain = 0
KBR1 190352Z 32007KT 14/01 A2977 RMK A01 T01370006  RH  041%=      5-min Rain = 0
KBR1 190353Z 34009KT 14/01 A2978 RMK A01 T01360006  RH  041%=      5-min Rain = 0
KBR1 190354Z 34013KT 14/01 A2978 RMK A01 T01350006  RH  041%=      5-min Rain = 0
KBR1 190355Z 34015KT 14/01 A2978 RMK A01 T01390006  RH  040%=      5-min Rain = 0
KBR1 190356Z 35015KT 15/01 A2978 RMK A01 T01470006  RH  038%=      5-min Rain = 0
KBR1 190357Z 35016KT 15/01 A2978 RMK A01 T01510005  RH  037%=      5-min Rain = 0
KBR1 190358Z 35015KT 15/01 A2978 RMK A01 T01520005  RH  036%=      5-min Rain = 0
KBR1 190359Z 35015KT 15/00 A2978 RMK A01 T01530004  RH  036%=      5-min Rain = 0
KBR1 190400Z 35015KT 15/00 A2978 RMK A01 T01540004  RH  036%=      5-min Rain = 0
KBR1 190401Z 34016KT 16/00 A2978 RMK A01 T01550003  RH  035%=      5-min Rain = 0
KBR1 190402Z 34015KT 16/00 A2979 RMK A01 T01560003  RH  035%=      5-min Rain = 0
KBR1 190403Z 34014KT 16/00 A2979 RMK A01 T01560003  RH  035%=      5-min Rain = 0
KBR1 190404Z 34015KT 15/00 A2979 RMK A01 T01540003  RH  036%=      5-min Rain = 0
KBR1 190405Z 35015KT 15/00 A2979 RMK A01 T01540003  RH  036%=      5-min Rain = 0
KBR1 190406Z 35014KT 15/00 A2979 RMK A01 T01530003  RH  036%=      5-min Rain = 0
KBR1 190407Z 35014KT 15/00 A2979 RMK A01 T01530003  RH  036%=      5-min Rain = 0
KBR1 190408Z 35014KT 15/00 A2979 RMK A01 T01530003  RH  036%=      5-min Rain = 0
KBR1 190409Z 35014KT 15/00 A2979 RMK A01 T01540004  RH  036%=      5-min Rain = 0
KBR1 190410Z 35013KT 16/00 A2979 RMK A01 T01550003  RH  036%=      5-min Rain = 0
KBR1 190411Z 34014KT 16/00 A2979 RMK A01 T01550004  RH  036%=      5-min Rain = 0
KBR1 190412Z 35014KT 16/00 A2979 RMK A01 T01550004  RH  036%=      5-min Rain = 0
KBR1 190413Z 35013KT 16/00 A2979 RMK A01 T01560004  RH  035%=      5-min Rain = 0
KBR1 190414Z 36014KT 16/00 A2979 RMK A01 T01560004  RH  036%=      5-min Rain = 0
KBR1 190415Z 36014KT 16/00 A2979 RMK A01 T01560004  RH  036%=      5-min Rain = 0
KBR1 190416Z 36017KT 16/01 A2979 RMK A01 T01560005  RH  036%=      5-min Rain = 0
KBR1 190417Z 36016KT 16/01 A2979 RMK A01 T01570005  RH  036%=      5-min Rain = 0
KBR1 190418Z 00016KT 16/01 A2979 RMK A01 T01580006  RH  035%=      5-min Rain = 0
KBR1 190419Z 00015KT 16/01 A2979 RMK A01 T01590006  RH  035%=      5-min Rain = 0
KBR1 190420Z 00013KT 16/01 A298 RMK A01 T01590007  RH  036%=      5-min Rain = 0
KBR1 190421Z 00016KT 16/01 A298 RMK A01 T01580007  RH  036%=      5-min Rain = 0
KBR1 190422Z 00016KT 16/01 A298 RMK A01 T01580007  RH  036%=      5-min Rain = 0
KBR1 190423Z 00014KT 16/01 A298 RMK A01 T01580007  RH  036%=      5-min Rain = 0
KBR1 190424Z 00015KT 16/01 A298 RMK A01 T01580008  RH  036%=      5-min Rain = 0
KBR1 190425Z 00016KT 16/01 A298 RMK A01 T01580008  RH  036%=      5-min Rain = 0
KBR1 190426Z 00017KT 16/01 A298 RMK A01 T01580008  RH  036%=      5-min Rain = 0
KBR1 190427Z 00015KT 16/01 A298 RMK A01 T01580008  RH  036%=      5-min Rain = 0
KBR1 190428Z 01016KT 16/01 A298 RMK A01 T01580009  RH  036%=      5-min Rain = 0
KBR1 190429Z 01014KT 16/01 A298 RMK A01 T01570009  RH  037%=      5-min Rain = 0
KBR1 190430Z 01015KT 16/01 A298 RMK A01 T01570010  RH  037%=      5-min Rain = 0
KBR1 190431Z 01017G22KT 16/01 A2979 RMK A01 T01560010  RH  037%=      5-min Rain = 0
KBR1 190432Z 01015KT 16/01 A298 RMK A01 T01560010  RH  037%=      5-min Rain = 0
KBR1 190433Z 01017KT 16/01 A298 RMK A01 T01560010  RH  037%=      5-min Rain = 0
KBR1 190434Z 01017KT 16/01 A298 RMK A01 T01560010  RH  037%=      5-min Rain = 0
KBR1 190435Z 01016KT 16/01 A298 RMK A01 T01560010  RH  037%=      5-min Rain = 0
KBR1 190436Z 02015KT 16/01 A298 RMK A01 T01560010  RH  037%=      5-min Rain = 0
KBR1 190437Z 01015KT 16/01 A298 RMK A01 T01560011  RH  037%=      5-min Rain = 0
KBR1 190438Z 01015KT 16/01 A298 RMK A01 T01550011  RH  038%=      5-min Rain = 0
KBR1 190439Z 02015KT 16/01 A298 RMK A01 T01550011  RH  038%=      5-min Rain = 0
KBR1 190440Z 02016KT 16/01 A298 RMK A01 T01550011  RH  038%=      5-min Rain = 0
KBR1 190441Z 02015KT 16/01 A298 RMK A01 T01550011  RH  038%=      5-min Rain = 0
KBR1 190442Z 02015KT 16/01 A298 RMK A01 T01550011  RH  038%=      5-min Rain = 0
KBR1 190443Z 02018KT 16/01 A298 RMK A01 T01550011  RH  038%=      5-min Rain = 0
KBR1 190444Z 02017KT 16/01 A298 RMK A01 T01550011  RH  038%=      5-min Rain = 0
KBR1 190445Z 02017KT 16/01 A298 RMK A01 T01550011  RH  037%=      5-min Rain = 0
KBR1 190446Z 02017KT 16/01 A298 RMK A01 T01560011  RH  038%=      5-min Rain = 0
KBR1 190447Z 02016KT 16/01 A298 RMK A01 T01550011  RH  038%=      5-min Rain = 0
KBR1 190448Z 02017KT 15/01 A298 RMK A01 T01540011  RH  038%=      5-min Rain = 0
KBR1 190449Z 02019KT 15/01 A298 RMK A01 T01540011  RH  038%=      5-min Rain = 0
KBR1 190450Z 02020KT 15/01 A298 RMK A01 T01540011  RH  038%=      5-min Rain = 0
KBR1 190451Z 02020KT 15/01 A298 RMK A01 T01540011  RH  038%=      5-min Rain = 0
KBR1 190452Z 02019KT 15/01 A298 RMK A01 T01540011  RH  038%=      5-min Rain = 0
KBR1 190453Z 02018KT 15/01 A298 RMK A01 T01540011  RH  038%=      5-min Rain = 0
KBR1 190454Z 02018KT 15/01 A298 RMK A01 T01540011  RH  038%=      5-min Rain = 0
KBR1 190455Z 02019KT 15/01 A298 RMK A01 T01530011  RH  038%=      5-min Rain = 0
KBR1 190456Z 02019KT 15/01 A298 RMK A01 T01530011  RH  038%=      5-min Rain = 0
KBR1 190457Z 02019KT 15/01 A298 RMK A01 T01530011  RH  038%=      5-min Rain = 0
KBR1 190458Z 02018KT 15/01 A298 RMK A01 T01530011  RH  038%=      5-min Rain = 0
KBR1 190459Z 02018G23KT 15/01 A2981 RMK A01 T01520011  RH  038%=      5-min Rain = 0

Page generated in 0.1249 seconds.